<?xml version="1.0" encoding="UTF-8" standalone="no" ?>
<gpx xmlns="http://www.topografix.com/GPX/1/1" xmlns:xsi="http://www.w3.org/2001/XMLSchema-instance" xsi:schemaLocation="http://www.topografix.com/GPX/1/1 http://www.topografix.com/GPX/1/1/gpx.xsd" version="1.1" creator="VisuGPX - https://www.visugpx.com">
  <metadata>
    <name>Clermont Soubiran 8.1 km</name>
  </metadata>
  <trk>
    <name><![CDATA[Pierre_NARFIT_2025-04-13_13-58-58]]></name>
    <extensions>
      <line xmlns="http://www.topografix.com/GPX/gpx_style/0/2">
        <color>0000FF</color>
        <width>4</width>
      </line>
    </extensions>
    <trkseg>
      <trkpt lat="44.14067" lon="0.83215">
        <ele>140</ele>
        <time>2025-04-13T11:59:11.510Z</time>
      </trkpt>
      <trkpt lat="44.14066" lon="0.83217">
        <ele>140</ele>
        <time>2025-04-13T11:59:12.510Z</time>
      </trkpt>
      <trkpt lat="44.14071" lon="0.83219">
        <ele>139</ele>
        <time>2025-04-13T11:59:13.510Z</time>
      </trkpt>
      <trkpt lat="44.14069" lon="0.83218">
        <ele>138</ele>
        <time>2025-04-13T11:59:14.510Z</time>
      </trkpt>
      <trkpt lat="44.1407" lon="0.83219">
        <ele>137</ele>
        <time>2025-04-13T11:59:15.510Z</time>
      </trkpt>
      <trkpt lat="44.14068" lon="0.83217">
        <ele>135</ele>
        <time>2025-04-13T11:59:19.510Z</time>
      </trkpt>
      <trkpt lat="44.14067" lon="0.83217">
        <ele>134</ele>
        <time>2025-04-13T11:59:21.510Z</time>
      </trkpt>
      <trkpt lat="44.14064" lon="0.83216">
        <ele>133</ele>
        <time>2025-04-13T11:59:25.510Z</time>
      </trkpt>
      <trkpt lat="44.14065" lon="0.83217">
        <ele>132</ele>
        <time>2025-04-13T11:59:27.510Z</time>
      </trkpt>
      <trkpt lat="44.14064" lon="0.83216">
        <ele>130</ele>
        <time>2025-04-13T11:59:35.510Z</time>
      </trkpt>
      <trkpt lat="44.14064" lon="0.83218">
        <ele>129</ele>
        <time>2025-04-13T11:59:45.510Z</time>
      </trkpt>
      <trkpt lat="44.14061" lon="0.83217">
        <ele>129</ele>
        <time>2025-04-13T11:59:53.510Z</time>
      </trkpt>
      <trkpt lat="44.1406" lon="0.83213">
        <ele>127</ele>
        <time>2025-04-13T12:00:05.510Z</time>
      </trkpt>
      <trkpt lat="44.14065" lon="0.8321">
        <ele>127</ele>
        <time>2025-04-13T12:00:13.510Z</time>
      </trkpt>
      <trkpt lat="44.14065" lon="0.83207">
        <ele>127</ele>
        <time>2025-04-13T12:00:15.510Z</time>
      </trkpt>
      <trkpt lat="44.14063" lon="0.83201">
        <ele>127</ele>
        <time>2025-04-13T12:00:19.510Z</time>
      </trkpt>
      <trkpt lat="44.14061" lon="0.83193">
        <ele>127</ele>
        <time>2025-04-13T12:00:27.510Z</time>
      </trkpt>
      <trkpt lat="44.14061" lon="0.83188">
        <ele>127</ele>
        <time>2025-04-13T12:00:33.510Z</time>
      </trkpt>
      <trkpt lat="44.14058" lon="0.83187">
        <ele>127</ele>
        <time>2025-04-13T12:00:37.510Z</time>
      </trkpt>
      <trkpt lat="44.14059" lon="0.83185">
        <ele>127</ele>
        <time>2025-04-13T12:00:41.510Z</time>
      </trkpt>
      <trkpt lat="44.14056" lon="0.83181">
        <ele>128</ele>
        <time>2025-04-13T12:00:45.510Z</time>
      </trkpt>
      <trkpt lat="44.14054" lon="0.83176">
        <ele>128</ele>
        <time>2025-04-13T12:00:49.510Z</time>
      </trkpt>
      <trkpt lat="44.14051" lon="0.83164">
        <ele>126</ele>
        <time>2025-04-13T12:00:57.510Z</time>
      </trkpt>
      <trkpt lat="44.14051" lon="0.83148">
        <ele>126</ele>
        <time>2025-04-13T12:01:07.510Z</time>
      </trkpt>
      <trkpt lat="44.14054" lon="0.83144">
        <ele>125</ele>
        <time>2025-04-13T12:01:11.510Z</time>
      </trkpt>
      <trkpt lat="44.14059" lon="0.83143">
        <ele>123</ele>
        <time>2025-04-13T12:01:15.510Z</time>
      </trkpt>
      <trkpt lat="44.14067" lon="0.83138">
        <ele>123</ele>
        <time>2025-04-13T12:01:23.510Z</time>
      </trkpt>
      <trkpt lat="44.14069" lon="0.83139">
        <ele>123</ele>
        <time>2025-04-13T12:01:25.510Z</time>
      </trkpt>
      <trkpt lat="44.14075" lon="0.83145">
        <ele>123</ele>
        <time>2025-04-13T12:01:29.510Z</time>
      </trkpt>
      <trkpt lat="44.14078" lon="0.83151">
        <ele>123</ele>
        <time>2025-04-13T12:01:33.510Z</time>
      </trkpt>
      <trkpt lat="44.14078" lon="0.83155">
        <ele>124</ele>
        <time>2025-04-13T12:01:37.510Z</time>
      </trkpt>
      <trkpt lat="44.14082" lon="0.8316">
        <ele>125</ele>
        <time>2025-04-13T12:01:40.510Z</time>
      </trkpt>
      <trkpt lat="44.14086" lon="0.83174">
        <ele>126</ele>
        <time>2025-04-13T12:01:48.510Z</time>
      </trkpt>
      <trkpt lat="44.14084" lon="0.83179">
        <ele>126</ele>
        <time>2025-04-13T12:01:52.510Z</time>
      </trkpt>
      <trkpt lat="44.14085" lon="0.83185">
        <ele>126</ele>
        <time>2025-04-13T12:01:56.510Z</time>
      </trkpt>
      <trkpt lat="44.14087" lon="0.8319">
        <ele>126</ele>
        <time>2025-04-13T12:02:00.510Z</time>
      </trkpt>
      <trkpt lat="44.14088" lon="0.83191">
        <ele>126</ele>
        <time>2025-04-13T12:02:01.511Z</time>
      </trkpt>
      <trkpt lat="44.1409" lon="0.83191">
        <ele>126</ele>
        <time>2025-04-13T12:02:03.510Z</time>
      </trkpt>
      <trkpt lat="44.1409" lon="0.83194">
        <ele>127</ele>
        <time>2025-04-13T12:02:09.510Z</time>
      </trkpt>
      <trkpt lat="44.14095" lon="0.83193">
        <ele>127</ele>
        <time>2025-04-13T12:02:17.510Z</time>
      </trkpt>
      <trkpt lat="44.14097" lon="0.83192">
        <ele>127</ele>
        <time>2025-04-13T12:02:19.510Z</time>
      </trkpt>
      <trkpt lat="44.14096" lon="0.8319">
        <ele>126</ele>
        <time>2025-04-13T12:02:21.510Z</time>
      </trkpt>
      <trkpt lat="44.14097" lon="0.83189">
        <ele>126</ele>
        <time>2025-04-13T12:02:23.510Z</time>
      </trkpt>
      <trkpt lat="44.14101" lon="0.8319">
        <ele>125</ele>
        <time>2025-04-13T12:02:27.510Z</time>
      </trkpt>
      <trkpt lat="44.14103" lon="0.83184">
        <ele>125</ele>
        <time>2025-04-13T12:02:35.510Z</time>
      </trkpt>
      <trkpt lat="44.14106" lon="0.83183">
        <ele>125</ele>
        <time>2025-04-13T12:02:38.510Z</time>
      </trkpt>
      <trkpt lat="44.14106" lon="0.83181">
        <ele>125</ele>
        <time>2025-04-13T12:02:40.510Z</time>
      </trkpt>
      <trkpt lat="44.14108" lon="0.83181">
        <ele>124</ele>
        <time>2025-04-13T12:02:44.510Z</time>
      </trkpt>
      <trkpt lat="44.14109" lon="0.83186">
        <ele>124</ele>
        <time>2025-04-13T12:02:50.510Z</time>
      </trkpt>
      <trkpt lat="44.14115" lon="0.83186">
        <ele>123</ele>
        <time>2025-04-13T12:02:56.510Z</time>
      </trkpt>
      <trkpt lat="44.14114" lon="0.83187">
        <ele>120</ele>
        <time>2025-04-13T12:03:00.510Z</time>
      </trkpt>
      <trkpt lat="44.14115" lon="0.83185">
        <ele>118</ele>
        <time>2025-04-13T12:03:04.510Z</time>
      </trkpt>
      <trkpt lat="44.14117" lon="0.83185">
        <ele>116</ele>
        <time>2025-04-13T12:03:12.510Z</time>
      </trkpt>
      <trkpt lat="44.14121" lon="0.83181">
        <ele>114</ele>
        <time>2025-04-13T12:03:20.510Z</time>
      </trkpt>
      <trkpt lat="44.14119" lon="0.83184">
        <ele>121</ele>
        <time>2025-04-13T12:03:52.510Z</time>
      </trkpt>
      <trkpt lat="44.14118" lon="0.83183">
        <ele>116</ele>
        <time>2025-04-13T12:04:12.510Z</time>
      </trkpt>
      <trkpt lat="44.14118" lon="0.83184">
        <ele>113</ele>
        <time>2025-04-13T12:04:20.510Z</time>
      </trkpt>
      <trkpt lat="44.14122" lon="0.8318">
        <ele>108</ele>
        <time>2025-04-13T12:04:38.510Z</time>
      </trkpt>
      <trkpt lat="44.14123" lon="0.83177">
        <ele>108</ele>
        <time>2025-04-13T12:04:42.510Z</time>
      </trkpt>
      <trkpt lat="44.14127" lon="0.83173">
        <ele>109</ele>
        <time>2025-04-13T12:04:50.510Z</time>
      </trkpt>
      <trkpt lat="44.1413" lon="0.83172">
        <ele>110</ele>
        <time>2025-04-13T12:04:54.510Z</time>
      </trkpt>
      <trkpt lat="44.14129" lon="0.83172">
        <ele>111</ele>
        <time>2025-04-13T12:04:56.511Z</time>
      </trkpt>
      <trkpt lat="44.14132" lon="0.83168">
        <ele>111</ele>
        <time>2025-04-13T12:05:03.510Z</time>
      </trkpt>
      <trkpt lat="44.14131" lon="0.83167">
        <ele>111</ele>
        <time>2025-04-13T12:05:05.510Z</time>
      </trkpt>
      <trkpt lat="44.14132" lon="0.83166">
        <ele>112</ele>
        <time>2025-04-13T12:05:07.510Z</time>
      </trkpt>
      <trkpt lat="44.14134" lon="0.83166">
        <ele>113</ele>
        <time>2025-04-13T12:05:12.510Z</time>
      </trkpt>
      <trkpt lat="44.14135" lon="0.83167">
        <ele>113</ele>
        <time>2025-04-13T12:05:14.510Z</time>
      </trkpt>
      <trkpt lat="44.14137" lon="0.83167">
        <ele>114</ele>
        <time>2025-04-13T12:05:16.510Z</time>
      </trkpt>
      <trkpt lat="44.14135" lon="0.83168">
        <ele>115</ele>
        <time>2025-04-13T12:05:20.510Z</time>
      </trkpt>
      <trkpt lat="44.14135" lon="0.83168">
        <ele>115</ele>
        <time>2025-04-13T12:05:21.510Z</time>
      </trkpt>
      <trkpt lat="44.14136" lon="0.83168">
        <ele>114</ele>
        <time>2025-04-13T12:05:23.510Z</time>
      </trkpt>
      <trkpt lat="44.14135" lon="0.83171">
        <ele>114</ele>
        <time>2025-04-13T12:05:26.510Z</time>
      </trkpt>
      <trkpt lat="44.14135" lon="0.8317">
        <ele>113</ele>
        <time>2025-04-13T12:05:27.510Z</time>
      </trkpt>
      <trkpt lat="44.14137" lon="0.8317">
        <ele>113</ele>
        <time>2025-04-13T12:05:29.510Z</time>
      </trkpt>
      <trkpt lat="44.14137" lon="0.83167">
        <ele>111</ele>
        <time>2025-04-13T12:05:35.510Z</time>
      </trkpt>
      <trkpt lat="44.14138" lon="0.83168">
        <ele>112</ele>
        <time>2025-04-13T12:05:39.511Z</time>
      </trkpt>
      <trkpt lat="44.1414" lon="0.83166">
        <ele>112</ele>
        <time>2025-04-13T12:05:49.510Z</time>
      </trkpt>
      <trkpt lat="44.14145" lon="0.83165">
        <ele>112</ele>
        <time>2025-04-13T12:05:57.510Z</time>
      </trkpt>
      <trkpt lat="44.14149" lon="0.83161">
        <ele>111</ele>
        <time>2025-04-13T12:06:03.510Z</time>
      </trkpt>
      <trkpt lat="44.1416" lon="0.83159">
        <ele>109</ele>
        <time>2025-04-13T12:06:17.510Z</time>
      </trkpt>
      <trkpt lat="44.14162" lon="0.83155">
        <ele>110</ele>
        <time>2025-04-13T12:06:21.510Z</time>
      </trkpt>
      <trkpt lat="44.14163" lon="0.83156">
        <ele>109</ele>
        <time>2025-04-13T12:06:22.510Z</time>
      </trkpt>
      <trkpt lat="44.14164" lon="0.83154">
        <ele>109</ele>
        <time>2025-04-13T12:06:24.510Z</time>
      </trkpt>
      <trkpt lat="44.14172" lon="0.8315">
        <ele>109</ele>
        <time>2025-04-13T12:06:30.510Z</time>
      </trkpt>
      <trkpt lat="44.14174" lon="0.83148">
        <ele>109</ele>
        <time>2025-04-13T12:06:32.510Z</time>
      </trkpt>
      <trkpt lat="44.14174" lon="0.83147">
        <ele>108</ele>
        <time>2025-04-13T12:06:34.510Z</time>
      </trkpt>
      <trkpt lat="44.1418" lon="0.83146">
        <ele>107</ele>
        <time>2025-04-13T12:06:37.510Z</time>
      </trkpt>
      <trkpt lat="44.14184" lon="0.83148">
        <ele>107</ele>
        <time>2025-04-13T12:06:39.510Z</time>
      </trkpt>
      <trkpt lat="44.14187" lon="0.83148">
        <ele>106</ele>
        <time>2025-04-13T12:06:41.510Z</time>
      </trkpt>
      <trkpt lat="44.14186" lon="0.83147">
        <ele>105</ele>
        <time>2025-04-13T12:06:43.510Z</time>
      </trkpt>
      <trkpt lat="44.14188" lon="0.83146">
        <ele>103</ele>
        <time>2025-04-13T12:06:47.510Z</time>
      </trkpt>
      <trkpt lat="44.142" lon="0.83149">
        <ele>99</ele>
        <time>2025-04-13T12:06:59.510Z</time>
      </trkpt>
      <trkpt lat="44.14207" lon="0.83148">
        <ele>97</ele>
        <time>2025-04-13T12:07:07.510Z</time>
      </trkpt>
      <trkpt lat="44.1421" lon="0.83146">
        <ele>97</ele>
        <time>2025-04-13T12:07:11.510Z</time>
      </trkpt>
      <trkpt lat="44.14213" lon="0.83147">
        <ele>97</ele>
        <time>2025-04-13T12:07:13.510Z</time>
      </trkpt>
      <trkpt lat="44.14218" lon="0.83144">
        <ele>97</ele>
        <time>2025-04-13T12:07:17.510Z</time>
      </trkpt>
      <trkpt lat="44.14221" lon="0.83144">
        <ele>96</ele>
        <time>2025-04-13T12:07:21.510Z</time>
      </trkpt>
      <trkpt lat="44.14232" lon="0.83141">
        <ele>95</ele>
        <time>2025-04-13T12:07:37.510Z</time>
      </trkpt>
      <trkpt lat="44.1424" lon="0.83134">
        <ele>93</ele>
        <time>2025-04-13T12:07:45.510Z</time>
      </trkpt>
      <trkpt lat="44.14246" lon="0.83129">
        <ele>94</ele>
        <time>2025-04-13T12:07:51.511Z</time>
      </trkpt>
      <trkpt lat="44.1425" lon="0.83125">
        <ele>95</ele>
        <time>2025-04-13T12:07:55.510Z</time>
      </trkpt>
      <trkpt lat="44.14255" lon="0.83122">
        <ele>96</ele>
        <time>2025-04-13T12:08:01.510Z</time>
      </trkpt>
      <trkpt lat="44.14257" lon="0.83123">
        <ele>95</ele>
        <time>2025-04-13T12:08:03.510Z</time>
      </trkpt>
      <trkpt lat="44.1426" lon="0.83122">
        <ele>95</ele>
        <time>2025-04-13T12:08:05.510Z</time>
      </trkpt>
      <trkpt lat="44.14266" lon="0.83116">
        <ele>95</ele>
        <time>2025-04-13T12:08:13.510Z</time>
      </trkpt>
      <trkpt lat="44.14271" lon="0.83115">
        <ele>96</ele>
        <time>2025-04-13T12:08:17.510Z</time>
      </trkpt>
      <trkpt lat="44.14274" lon="0.83112">
        <ele>95</ele>
        <time>2025-04-13T12:08:21.510Z</time>
      </trkpt>
      <trkpt lat="44.14279" lon="0.8311">
        <ele>94</ele>
        <time>2025-04-13T12:08:23.510Z</time>
      </trkpt>
      <trkpt lat="44.14281" lon="0.83106">
        <ele>94</ele>
        <time>2025-04-13T12:08:27.510Z</time>
      </trkpt>
      <trkpt lat="44.14286" lon="0.83105">
        <ele>94</ele>
        <time>2025-04-13T12:08:31.510Z</time>
      </trkpt>
      <trkpt lat="44.14296" lon="0.83104">
        <ele>96</ele>
        <time>2025-04-13T12:08:39.510Z</time>
      </trkpt>
      <trkpt lat="44.14311" lon="0.83104">
        <ele>100</ele>
        <time>2025-04-13T12:08:57.510Z</time>
      </trkpt>
      <trkpt lat="44.14313" lon="0.83103">
        <ele>100</ele>
        <time>2025-04-13T12:08:59.510Z</time>
      </trkpt>
      <trkpt lat="44.14334" lon="0.83109">
        <ele>102</ele>
        <time>2025-04-13T12:09:13.510Z</time>
      </trkpt>
      <trkpt lat="44.14337" lon="0.8311">
        <ele>102</ele>
        <time>2025-04-13T12:09:17.510Z</time>
      </trkpt>
      <trkpt lat="44.1434" lon="0.8311">
        <ele>103</ele>
        <time>2025-04-13T12:09:21.510Z</time>
      </trkpt>
      <trkpt lat="44.14347" lon="0.83112">
        <ele>104</ele>
        <time>2025-04-13T12:09:29.510Z</time>
      </trkpt>
      <trkpt lat="44.14353" lon="0.83111">
        <ele>102</ele>
        <time>2025-04-13T12:09:35.510Z</time>
      </trkpt>
      <trkpt lat="44.14356" lon="0.83111">
        <ele>101</ele>
        <time>2025-04-13T12:09:37.510Z</time>
      </trkpt>
      <trkpt lat="44.1436" lon="0.83115">
        <ele>101</ele>
        <time>2025-04-13T12:09:41.510Z</time>
      </trkpt>
      <trkpt lat="44.14363" lon="0.83115">
        <ele>100</ele>
        <time>2025-04-13T12:09:45.510Z</time>
      </trkpt>
      <trkpt lat="44.14365" lon="0.83118">
        <ele>100</ele>
        <time>2025-04-13T12:09:49.510Z</time>
      </trkpt>
      <trkpt lat="44.14372" lon="0.8312">
        <ele>99</ele>
        <time>2025-04-13T12:09:55.510Z</time>
      </trkpt>
      <trkpt lat="44.14381" lon="0.83126">
        <ele>96</ele>
        <time>2025-04-13T12:10:03.510Z</time>
      </trkpt>
      <trkpt lat="44.14384" lon="0.83129">
        <ele>96</ele>
        <time>2025-04-13T12:10:11.510Z</time>
      </trkpt>
      <trkpt lat="44.14388" lon="0.83132">
        <ele>96</ele>
        <time>2025-04-13T12:10:19.510Z</time>
      </trkpt>
      <trkpt lat="44.14391" lon="0.83132">
        <ele>95</ele>
        <time>2025-04-13T12:10:27.510Z</time>
      </trkpt>
      <trkpt lat="44.14397" lon="0.83137">
        <ele>95</ele>
        <time>2025-04-13T12:10:35.510Z</time>
      </trkpt>
      <trkpt lat="44.14403" lon="0.83143">
        <ele>92</ele>
        <time>2025-04-13T12:10:43.510Z</time>
      </trkpt>
      <trkpt lat="44.14409" lon="0.83146">
        <ele>91</ele>
        <time>2025-04-13T12:10:47.511Z</time>
      </trkpt>
      <trkpt lat="44.14414" lon="0.83156">
        <ele>87</ele>
        <time>2025-04-13T12:11:03.510Z</time>
      </trkpt>
      <trkpt lat="44.14414" lon="0.83157">
        <ele>87</ele>
        <time>2025-04-13T12:11:11.510Z</time>
      </trkpt>
      <trkpt lat="44.14423" lon="0.83162">
        <ele>87</ele>
        <time>2025-04-13T12:11:19.510Z</time>
      </trkpt>
      <trkpt lat="44.14432" lon="0.83169">
        <ele>87</ele>
        <time>2025-04-13T12:11:25.510Z</time>
      </trkpt>
      <trkpt lat="44.14438" lon="0.83171">
        <ele>85</ele>
        <time>2025-04-13T12:11:29.510Z</time>
      </trkpt>
      <trkpt lat="44.14442" lon="0.83171">
        <ele>83</ele>
        <time>2025-04-13T12:11:33.510Z</time>
      </trkpt>
      <trkpt lat="44.14449" lon="0.83174">
        <ele>82</ele>
        <time>2025-04-13T12:11:39.510Z</time>
      </trkpt>
      <trkpt lat="44.14452" lon="0.83177">
        <ele>80</ele>
        <time>2025-04-13T12:11:43.510Z</time>
      </trkpt>
      <trkpt lat="44.14457" lon="0.83177">
        <ele>80</ele>
        <time>2025-04-13T12:11:49.510Z</time>
      </trkpt>
      <trkpt lat="44.14459" lon="0.83176">
        <ele>80</ele>
        <time>2025-04-13T12:11:51.510Z</time>
      </trkpt>
      <trkpt lat="44.14475" lon="0.83178">
        <ele>78</ele>
        <time>2025-04-13T12:12:01.510Z</time>
      </trkpt>
      <trkpt lat="44.14477" lon="0.83177">
        <ele>77</ele>
        <time>2025-04-13T12:12:05.510Z</time>
      </trkpt>
      <trkpt lat="44.14486" lon="0.8318">
        <ele>79</ele>
        <time>2025-04-13T12:12:13.510Z</time>
      </trkpt>
      <trkpt lat="44.14495" lon="0.83182">
        <ele>79</ele>
        <time>2025-04-13T12:12:21.510Z</time>
      </trkpt>
      <trkpt lat="44.14505" lon="0.83181">
        <ele>76</ele>
        <time>2025-04-13T12:12:32.510Z</time>
      </trkpt>
      <trkpt lat="44.14508" lon="0.83184">
        <ele>75</ele>
        <time>2025-04-13T12:12:36.510Z</time>
      </trkpt>
      <trkpt lat="44.14511" lon="0.83189">
        <ele>76</ele>
        <time>2025-04-13T12:12:44.510Z</time>
      </trkpt>
      <trkpt lat="44.1451" lon="0.83191">
        <ele>75</ele>
        <time>2025-04-13T12:13:16.510Z</time>
      </trkpt>
      <trkpt lat="44.1451" lon="0.83192">
        <ele>75</ele>
        <time>2025-04-13T12:13:32.510Z</time>
      </trkpt>
      <trkpt lat="44.1451" lon="0.83193">
        <ele>71</ele>
        <time>2025-04-13T12:14:04.510Z</time>
      </trkpt>
      <trkpt lat="44.1451" lon="0.83193">
        <ele>69</ele>
        <time>2025-04-13T12:14:12.510Z</time>
      </trkpt>
      <trkpt lat="44.14509" lon="0.8319">
        <ele>70</ele>
        <time>2025-04-13T12:14:20.510Z</time>
      </trkpt>
      <trkpt lat="44.14511" lon="0.83184">
        <ele>72</ele>
        <time>2025-04-13T12:14:26.510Z</time>
      </trkpt>
      <trkpt lat="44.14524" lon="0.83155">
        <ele>73</ele>
        <time>2025-04-13T12:14:48.510Z</time>
      </trkpt>
      <trkpt lat="44.14539" lon="0.8314">
        <ele>72</ele>
        <time>2025-04-13T12:15:04.510Z</time>
      </trkpt>
      <trkpt lat="44.14547" lon="0.83133">
        <ele>75</ele>
        <time>2025-04-13T12:15:12.510Z</time>
      </trkpt>
      <trkpt lat="44.14556" lon="0.83127">
        <ele>75</ele>
        <time>2025-04-13T12:15:20.510Z</time>
      </trkpt>
      <trkpt lat="44.1456" lon="0.83122">
        <ele>74</ele>
        <time>2025-04-13T12:15:24.510Z</time>
      </trkpt>
      <trkpt lat="44.14569" lon="0.83116">
        <ele>72</ele>
        <time>2025-04-13T12:15:32.510Z</time>
      </trkpt>
      <trkpt lat="44.14576" lon="0.83106">
        <ele>73</ele>
        <time>2025-04-13T12:15:40.510Z</time>
      </trkpt>
      <trkpt lat="44.14581" lon="0.83089">
        <ele>75</ele>
        <time>2025-04-13T12:15:50.510Z</time>
      </trkpt>
      <trkpt lat="44.14584" lon="0.83083">
        <ele>75</ele>
        <time>2025-04-13T12:15:54.510Z</time>
      </trkpt>
      <trkpt lat="44.14588" lon="0.83071">
        <ele>77</ele>
        <time>2025-04-13T12:16:02.510Z</time>
      </trkpt>
      <trkpt lat="44.14598" lon="0.8305">
        <ele>79</ele>
        <time>2025-04-13T12:16:18.510Z</time>
      </trkpt>
      <trkpt lat="44.14606" lon="0.83027">
        <ele>80</ele>
        <time>2025-04-13T12:16:34.510Z</time>
      </trkpt>
      <trkpt lat="44.14621" lon="0.83011">
        <ele>79</ele>
        <time>2025-04-13T12:16:50.510Z</time>
      </trkpt>
      <trkpt lat="44.14631" lon="0.83008">
        <ele>76</ele>
        <time>2025-04-13T12:16:58.510Z</time>
      </trkpt>
      <trkpt lat="44.14645" lon="0.8301">
        <ele>78</ele>
        <time>2025-04-13T12:17:10.510Z</time>
      </trkpt>
      <trkpt lat="44.14648" lon="0.83011">
        <ele>79</ele>
        <time>2025-04-13T12:17:14.510Z</time>
      </trkpt>
      <trkpt lat="44.14649" lon="0.83015">
        <ele>79</ele>
        <time>2025-04-13T12:17:18.510Z</time>
      </trkpt>
      <trkpt lat="44.14654" lon="0.83014">
        <ele>79</ele>
        <time>2025-04-13T12:17:26.510Z</time>
      </trkpt>
      <trkpt lat="44.14673" lon="0.83017">
        <ele>78</ele>
        <time>2025-04-13T12:17:42.510Z</time>
      </trkpt>
      <trkpt lat="44.14703" lon="0.83017">
        <ele>78</ele>
        <time>2025-04-13T12:18:06.510Z</time>
      </trkpt>
      <trkpt lat="44.14708" lon="0.83015">
        <ele>78</ele>
        <time>2025-04-13T12:18:10.510Z</time>
      </trkpt>
      <trkpt lat="44.14722" lon="0.83014">
        <ele>77</ele>
        <time>2025-04-13T12:18:22.510Z</time>
      </trkpt>
      <trkpt lat="44.14727" lon="0.83013">
        <ele>77</ele>
        <time>2025-04-13T12:18:26.511Z</time>
      </trkpt>
      <trkpt lat="44.14739" lon="0.83015">
        <ele>77</ele>
        <time>2025-04-13T12:18:38.510Z</time>
      </trkpt>
      <trkpt lat="44.14762" lon="0.83006">
        <ele>74</ele>
        <time>2025-04-13T12:19:02.510Z</time>
      </trkpt>
      <trkpt lat="44.14778" lon="0.82995">
        <ele>72</ele>
        <time>2025-04-13T12:19:16.510Z</time>
      </trkpt>
      <trkpt lat="44.14778" lon="0.82993">
        <ele>72</ele>
        <time>2025-04-13T12:19:17.510Z</time>
      </trkpt>
      <trkpt lat="44.1478" lon="0.82993">
        <ele>72</ele>
        <time>2025-04-13T12:19:19.510Z</time>
      </trkpt>
      <trkpt lat="44.14788" lon="0.82986">
        <ele>72</ele>
        <time>2025-04-13T12:19:27.510Z</time>
      </trkpt>
      <trkpt lat="44.14791" lon="0.82986">
        <ele>72</ele>
        <time>2025-04-13T12:19:29.510Z</time>
      </trkpt>
      <trkpt lat="44.14794" lon="0.8298">
        <ele>73</ele>
        <time>2025-04-13T12:19:33.510Z</time>
      </trkpt>
      <trkpt lat="44.14811" lon="0.82967">
        <ele>75</ele>
        <time>2025-04-13T12:19:49.511Z</time>
      </trkpt>
      <trkpt lat="44.14819" lon="0.8296">
        <ele>72</ele>
        <time>2025-04-13T12:19:57.510Z</time>
      </trkpt>
      <trkpt lat="44.14837" lon="0.8294">
        <ele>68</ele>
        <time>2025-04-13T12:20:17.511Z</time>
      </trkpt>
      <trkpt lat="44.14842" lon="0.82929">
        <ele>68</ele>
        <time>2025-04-13T12:20:25.510Z</time>
      </trkpt>
      <trkpt lat="44.14862" lon="0.8287">
        <ele>64</ele>
        <time>2025-04-13T12:21:05.510Z</time>
      </trkpt>
      <trkpt lat="44.14866" lon="0.82865">
        <ele>64</ele>
        <time>2025-04-13T12:21:13.510Z</time>
      </trkpt>
      <trkpt lat="44.14872" lon="0.82861">
        <ele>66</ele>
        <time>2025-04-13T12:21:21.510Z</time>
      </trkpt>
      <trkpt lat="44.14874" lon="0.82858">
        <ele>66</ele>
        <time>2025-04-13T12:21:25.510Z</time>
      </trkpt>
      <trkpt lat="44.14875" lon="0.82854">
        <ele>66</ele>
        <time>2025-04-13T12:21:29.510Z</time>
      </trkpt>
      <trkpt lat="44.14884" lon="0.82842">
        <ele>66</ele>
        <time>2025-04-13T12:21:45.510Z</time>
      </trkpt>
      <trkpt lat="44.14886" lon="0.82841">
        <ele>66</ele>
        <time>2025-04-13T12:21:47.510Z</time>
      </trkpt>
      <trkpt lat="44.14888" lon="0.82842">
        <ele>63</ele>
        <time>2025-04-13T12:22:19.510Z</time>
      </trkpt>
      <trkpt lat="44.1489" lon="0.82839">
        <ele>64</ele>
        <time>2025-04-13T12:22:51.510Z</time>
      </trkpt>
      <trkpt lat="44.14894" lon="0.82839">
        <ele>66</ele>
        <time>2025-04-13T12:23:07.510Z</time>
      </trkpt>
      <trkpt lat="44.14895" lon="0.82836">
        <ele>67</ele>
        <time>2025-04-13T12:23:11.510Z</time>
      </trkpt>
      <trkpt lat="44.14927" lon="0.8281">
        <ele>66</ele>
        <time>2025-04-13T12:23:43.510Z</time>
      </trkpt>
      <trkpt lat="44.14937" lon="0.82798">
        <ele>67</ele>
        <time>2025-04-13T12:23:55.510Z</time>
      </trkpt>
      <trkpt lat="44.1494" lon="0.82797">
        <ele>67</ele>
        <time>2025-04-13T12:23:59.510Z</time>
      </trkpt>
      <trkpt lat="44.14941" lon="0.82796">
        <ele>67</ele>
        <time>2025-04-13T12:24:01.510Z</time>
      </trkpt>
      <trkpt lat="44.14946" lon="0.82797">
        <ele>67</ele>
        <time>2025-04-13T12:24:05.510Z</time>
      </trkpt>
      <trkpt lat="44.14948" lon="0.82798">
        <ele>67</ele>
        <time>2025-04-13T12:24:07.510Z</time>
      </trkpt>
      <trkpt lat="44.14949" lon="0.828">
        <ele>67</ele>
        <time>2025-04-13T12:24:09.510Z</time>
      </trkpt>
      <trkpt lat="44.14958" lon="0.82805">
        <ele>68</ele>
        <time>2025-04-13T12:24:17.510Z</time>
      </trkpt>
      <trkpt lat="44.14982" lon="0.82825">
        <ele>70</ele>
        <time>2025-04-13T12:24:41.510Z</time>
      </trkpt>
      <trkpt lat="44.14985" lon="0.82828">
        <ele>70</ele>
        <time>2025-04-13T12:24:45.510Z</time>
      </trkpt>
      <trkpt lat="44.14992" lon="0.82833">
        <ele>72</ele>
        <time>2025-04-13T12:24:51.510Z</time>
      </trkpt>
      <trkpt lat="44.14994" lon="0.82835">
        <ele>72</ele>
        <time>2025-04-13T12:24:53.510Z</time>
      </trkpt>
      <trkpt lat="44.14997" lon="0.82838">
        <ele>73</ele>
        <time>2025-04-13T12:24:57.510Z</time>
      </trkpt>
      <trkpt lat="44.15004" lon="0.82844">
        <ele>73</ele>
        <time>2025-04-13T12:25:03.510Z</time>
      </trkpt>
      <trkpt lat="44.15007" lon="0.82848">
        <ele>73</ele>
        <time>2025-04-13T12:25:07.510Z</time>
      </trkpt>
      <trkpt lat="44.15015" lon="0.82854">
        <ele>73</ele>
        <time>2025-04-13T12:25:15.510Z</time>
      </trkpt>
      <trkpt lat="44.15021" lon="0.82862">
        <ele>73</ele>
        <time>2025-04-13T12:25:23.510Z</time>
      </trkpt>
      <trkpt lat="44.15036" lon="0.82875">
        <ele>73</ele>
        <time>2025-04-13T12:25:39.510Z</time>
      </trkpt>
      <trkpt lat="44.15056" lon="0.82895">
        <ele>74</ele>
        <time>2025-04-13T12:25:59.510Z</time>
      </trkpt>
      <trkpt lat="44.15058" lon="0.82899">
        <ele>75</ele>
        <time>2025-04-13T12:26:03.510Z</time>
      </trkpt>
      <trkpt lat="44.15062" lon="0.82898">
        <ele>74</ele>
        <time>2025-04-13T12:26:09.510Z</time>
      </trkpt>
      <trkpt lat="44.1507" lon="0.829">
        <ele>74</ele>
        <time>2025-04-13T12:26:17.510Z</time>
      </trkpt>
      <trkpt lat="44.15082" lon="0.829">
        <ele>73</ele>
        <time>2025-04-13T12:26:33.510Z</time>
      </trkpt>
      <trkpt lat="44.15095" lon="0.82889">
        <ele>74</ele>
        <time>2025-04-13T12:26:46.511Z</time>
      </trkpt>
      <trkpt lat="44.15096" lon="0.82885">
        <ele>75</ele>
        <time>2025-04-13T12:26:49.510Z</time>
      </trkpt>
      <trkpt lat="44.151" lon="0.82885">
        <ele>76</ele>
        <time>2025-04-13T12:26:53.510Z</time>
      </trkpt>
      <trkpt lat="44.15114" lon="0.82875">
        <ele>79</ele>
        <time>2025-04-13T12:27:07.510Z</time>
      </trkpt>
      <trkpt lat="44.15117" lon="0.82871">
        <ele>79</ele>
        <time>2025-04-13T12:27:11.510Z</time>
      </trkpt>
      <trkpt lat="44.15119" lon="0.8287">
        <ele>78</ele>
        <time>2025-04-13T12:27:13.510Z</time>
      </trkpt>
      <trkpt lat="44.15125" lon="0.82874">
        <ele>77</ele>
        <time>2025-04-13T12:27:18.510Z</time>
      </trkpt>
      <trkpt lat="44.15136" lon="0.82871">
        <ele>77</ele>
        <time>2025-04-13T12:27:30.510Z</time>
      </trkpt>
      <trkpt lat="44.15154" lon="0.82872">
        <ele>80</ele>
        <time>2025-04-13T12:27:46.510Z</time>
      </trkpt>
      <trkpt lat="44.15159" lon="0.82873">
        <ele>79</ele>
        <time>2025-04-13T12:27:52.510Z</time>
      </trkpt>
      <trkpt lat="44.15162" lon="0.82873">
        <ele>79</ele>
        <time>2025-04-13T12:27:56.510Z</time>
      </trkpt>
      <trkpt lat="44.15164" lon="0.82874">
        <ele>79</ele>
        <time>2025-04-13T12:28:00.510Z</time>
      </trkpt>
      <trkpt lat="44.15169" lon="0.82873">
        <ele>80</ele>
        <time>2025-04-13T12:28:04.510Z</time>
      </trkpt>
      <trkpt lat="44.15182" lon="0.82875">
        <ele>84</ele>
        <time>2025-04-13T12:28:20.510Z</time>
      </trkpt>
      <trkpt lat="44.15185" lon="0.82875">
        <ele>85</ele>
        <time>2025-04-13T12:28:24.510Z</time>
      </trkpt>
      <trkpt lat="44.15191" lon="0.82878">
        <ele>88</ele>
        <time>2025-04-13T12:28:30.510Z</time>
      </trkpt>
      <trkpt lat="44.15195" lon="0.82877">
        <ele>89</ele>
        <time>2025-04-13T12:28:34.510Z</time>
      </trkpt>
      <trkpt lat="44.15201" lon="0.82872">
        <ele>92</ele>
        <time>2025-04-13T12:28:41.510Z</time>
      </trkpt>
      <trkpt lat="44.15218" lon="0.82883">
        <ele>88</ele>
        <time>2025-04-13T12:28:57.511Z</time>
      </trkpt>
      <trkpt lat="44.15225" lon="0.82889">
        <ele>88</ele>
        <time>2025-04-13T12:29:07.510Z</time>
      </trkpt>
      <trkpt lat="44.15227" lon="0.82893">
        <ele>88</ele>
        <time>2025-04-13T12:29:11.510Z</time>
      </trkpt>
      <trkpt lat="44.15231" lon="0.82896">
        <ele>89</ele>
        <time>2025-04-13T12:29:19.510Z</time>
      </trkpt>
      <trkpt lat="44.15233" lon="0.829">
        <ele>89</ele>
        <time>2025-04-13T12:30:31.510Z</time>
      </trkpt>
      <trkpt lat="44.15232" lon="0.82899">
        <ele>86</ele>
        <time>2025-04-13T12:30:47.510Z</time>
      </trkpt>
      <trkpt lat="44.15233" lon="0.829">
        <ele>85</ele>
        <time>2025-04-13T12:30:51.510Z</time>
      </trkpt>
      <trkpt lat="44.15235" lon="0.82899">
        <ele>88</ele>
        <time>2025-04-13T12:30:55.510Z</time>
      </trkpt>
      <trkpt lat="44.15241" lon="0.82902">
        <ele>90</ele>
        <time>2025-04-13T12:31:03.510Z</time>
      </trkpt>
      <trkpt lat="44.15243" lon="0.82902">
        <ele>93</ele>
        <time>2025-04-13T12:31:07.510Z</time>
      </trkpt>
      <trkpt lat="44.1525" lon="0.82906">
        <ele>94</ele>
        <time>2025-04-13T12:31:15.510Z</time>
      </trkpt>
      <trkpt lat="44.15257" lon="0.82913">
        <ele>93</ele>
        <time>2025-04-13T12:31:35.510Z</time>
      </trkpt>
      <trkpt lat="44.15261" lon="0.82914">
        <ele>93</ele>
        <time>2025-04-13T12:31:43.510Z</time>
      </trkpt>
      <trkpt lat="44.15268" lon="0.82917">
        <ele>93</ele>
        <time>2025-04-13T12:31:55.510Z</time>
      </trkpt>
      <trkpt lat="44.15286" lon="0.8292">
        <ele>97</ele>
        <time>2025-04-13T12:32:43.510Z</time>
      </trkpt>
      <trkpt lat="44.15296" lon="0.8292">
        <ele>97</ele>
        <time>2025-04-13T12:32:59.510Z</time>
      </trkpt>
      <trkpt lat="44.15305" lon="0.82923">
        <ele>101</ele>
        <time>2025-04-13T12:33:11.510Z</time>
      </trkpt>
      <trkpt lat="44.15313" lon="0.82927">
        <ele>102</ele>
        <time>2025-04-13T12:33:19.510Z</time>
      </trkpt>
      <trkpt lat="44.15316" lon="0.82928">
        <ele>101</ele>
        <time>2025-04-13T12:33:23.510Z</time>
      </trkpt>
      <trkpt lat="44.15324" lon="0.82932">
        <ele>102</ele>
        <time>2025-04-13T12:33:39.510Z</time>
      </trkpt>
      <trkpt lat="44.15332" lon="0.82934">
        <ele>104</ele>
        <time>2025-04-13T12:33:51.510Z</time>
      </trkpt>
      <trkpt lat="44.15334" lon="0.82933">
        <ele>104</ele>
        <time>2025-04-13T12:33:55.510Z</time>
      </trkpt>
      <trkpt lat="44.15337" lon="0.82933">
        <ele>104</ele>
        <time>2025-04-13T12:33:59.510Z</time>
      </trkpt>
      <trkpt lat="44.15337" lon="0.82934">
        <ele>104</ele>
        <time>2025-04-13T12:34:03.510Z</time>
      </trkpt>
      <trkpt lat="44.15344" lon="0.82937">
        <ele>102</ele>
        <time>2025-04-13T12:34:15.510Z</time>
      </trkpt>
      <trkpt lat="44.15344" lon="0.82938">
        <ele>108</ele>
        <time>2025-04-13T12:34:31.510Z</time>
      </trkpt>
      <trkpt lat="44.15344" lon="0.82936">
        <ele>107</ele>
        <time>2025-04-13T12:34:55.510Z</time>
      </trkpt>
      <trkpt lat="44.15348" lon="0.82935">
        <ele>107</ele>
        <time>2025-04-13T12:35:07.510Z</time>
      </trkpt>
      <trkpt lat="44.15354" lon="0.82938">
        <ele>108</ele>
        <time>2025-04-13T12:35:19.510Z</time>
      </trkpt>
      <trkpt lat="44.15359" lon="0.82939">
        <ele>108</ele>
        <time>2025-04-13T12:35:27.511Z</time>
      </trkpt>
      <trkpt lat="44.15365" lon="0.82942">
        <ele>108</ele>
        <time>2025-04-13T12:35:43.510Z</time>
      </trkpt>
      <trkpt lat="44.15377" lon="0.82944">
        <ele>108</ele>
        <time>2025-04-13T12:36:07.510Z</time>
      </trkpt>
      <trkpt lat="44.15379" lon="0.82942">
        <ele>109</ele>
        <time>2025-04-13T12:36:15.511Z</time>
      </trkpt>
      <trkpt lat="44.15385" lon="0.8294">
        <ele>109</ele>
        <time>2025-04-13T12:36:23.510Z</time>
      </trkpt>
      <trkpt lat="44.15392" lon="0.82935">
        <ele>111</ele>
        <time>2025-04-13T12:36:47.510Z</time>
      </trkpt>
      <trkpt lat="44.15395" lon="0.82935">
        <ele>112</ele>
        <time>2025-04-13T12:36:51.510Z</time>
      </trkpt>
      <trkpt lat="44.15396" lon="0.82938">
        <ele>112</ele>
        <time>2025-04-13T12:36:55.510Z</time>
      </trkpt>
      <trkpt lat="44.15396" lon="0.82942">
        <ele>113</ele>
        <time>2025-04-13T12:37:59.510Z</time>
      </trkpt>
      <trkpt lat="44.15397" lon="0.82943">
        <ele>111</ele>
        <time>2025-04-13T12:38:15.510Z</time>
      </trkpt>
      <trkpt lat="44.15396" lon="0.82942">
        <ele>112</ele>
        <time>2025-04-13T12:38:47.510Z</time>
      </trkpt>
      <trkpt lat="44.15396" lon="0.82943">
        <ele>113</ele>
        <time>2025-04-13T12:39:03.510Z</time>
      </trkpt>
      <trkpt lat="44.15396" lon="0.82943">
        <ele>113</ele>
        <time>2025-04-13T12:39:19.510Z</time>
      </trkpt>
      <trkpt lat="44.15396" lon="0.82944">
        <ele>114</ele>
        <time>2025-04-13T12:39:35.510Z</time>
      </trkpt>
      <trkpt lat="44.15396" lon="0.82942">
        <ele>116</ele>
        <time>2025-04-13T12:40:07.510Z</time>
      </trkpt>
      <trkpt lat="44.15402" lon="0.82941">
        <ele>115</ele>
        <time>2025-04-13T12:40:15.510Z</time>
      </trkpt>
      <trkpt lat="44.1541" lon="0.8294">
        <ele>115</ele>
        <time>2025-04-13T12:40:23.511Z</time>
      </trkpt>
      <trkpt lat="44.15416" lon="0.82937">
        <ele>115</ele>
        <time>2025-04-13T12:40:31.510Z</time>
      </trkpt>
      <trkpt lat="44.15421" lon="0.8294">
        <ele>115</ele>
        <time>2025-04-13T12:40:47.510Z</time>
      </trkpt>
      <trkpt lat="44.15421" lon="0.82942">
        <ele>116</ele>
        <time>2025-04-13T12:40:55.510Z</time>
      </trkpt>
      <trkpt lat="44.15423" lon="0.82942">
        <ele>114</ele>
        <time>2025-04-13T12:41:11.510Z</time>
      </trkpt>
      <trkpt lat="44.15423" lon="0.82943">
        <ele>113</ele>
        <time>2025-04-13T12:41:19.510Z</time>
      </trkpt>
      <trkpt lat="44.15426" lon="0.82939">
        <ele>112</ele>
        <time>2025-04-13T12:41:39.510Z</time>
      </trkpt>
      <trkpt lat="44.15429" lon="0.82938">
        <ele>113</ele>
        <time>2025-04-13T12:41:43.510Z</time>
      </trkpt>
      <trkpt lat="44.15444" lon="0.82935">
        <ele>116</ele>
        <time>2025-04-13T12:41:59.510Z</time>
      </trkpt>
      <trkpt lat="44.15463" lon="0.82928">
        <ele>122</ele>
        <time>2025-04-13T12:42:27.510Z</time>
      </trkpt>
      <trkpt lat="44.15467" lon="0.82924">
        <ele>123</ele>
        <time>2025-04-13T12:42:35.510Z</time>
      </trkpt>
      <trkpt lat="44.15477" lon="0.82919">
        <ele>124</ele>
        <time>2025-04-13T12:42:51.510Z</time>
      </trkpt>
      <trkpt lat="44.1548" lon="0.82917">
        <ele>124</ele>
        <time>2025-04-13T12:42:55.510Z</time>
      </trkpt>
      <trkpt lat="44.15481" lon="0.82917">
        <ele>124</ele>
        <time>2025-04-13T12:42:57.510Z</time>
      </trkpt>
      <trkpt lat="44.15483" lon="0.82917">
        <ele>124</ele>
        <time>2025-04-13T12:42:59.510Z</time>
      </trkpt>
      <trkpt lat="44.15486" lon="0.82916">
        <ele>124</ele>
        <time>2025-04-13T12:43:03.511Z</time>
      </trkpt>
      <trkpt lat="44.155" lon="0.82901">
        <ele>132</ele>
        <time>2025-04-13T12:43:35.510Z</time>
      </trkpt>
      <trkpt lat="44.15505" lon="0.82894">
        <ele>132</ele>
        <time>2025-04-13T12:43:43.510Z</time>
      </trkpt>
      <trkpt lat="44.15505" lon="0.82892">
        <ele>132</ele>
        <time>2025-04-13T12:43:45.510Z</time>
      </trkpt>
      <trkpt lat="44.15508" lon="0.82892">
        <ele>134</ele>
        <time>2025-04-13T12:43:53.510Z</time>
      </trkpt>
      <trkpt lat="44.15515" lon="0.82887">
        <ele>136</ele>
        <time>2025-04-13T12:44:09.510Z</time>
      </trkpt>
      <trkpt lat="44.1552" lon="0.82879">
        <ele>139</ele>
        <time>2025-04-13T12:44:21.510Z</time>
      </trkpt>
      <trkpt lat="44.15522" lon="0.82878">
        <ele>140</ele>
        <time>2025-04-13T12:44:25.510Z</time>
      </trkpt>
      <trkpt lat="44.15523" lon="0.82878">
        <ele>140</ele>
        <time>2025-04-13T12:44:27.510Z</time>
      </trkpt>
      <trkpt lat="44.15524" lon="0.82876">
        <ele>139</ele>
        <time>2025-04-13T12:44:29.510Z</time>
      </trkpt>
      <trkpt lat="44.15527" lon="0.82878">
        <ele>138</ele>
        <time>2025-04-13T12:44:33.510Z</time>
      </trkpt>
      <trkpt lat="44.15529" lon="0.82876">
        <ele>139</ele>
        <time>2025-04-13T12:44:37.510Z</time>
      </trkpt>
      <trkpt lat="44.15542" lon="0.82876">
        <ele>145</ele>
        <time>2025-04-13T12:45:09.510Z</time>
      </trkpt>
      <trkpt lat="44.15542" lon="0.82875">
        <ele>143</ele>
        <time>2025-04-13T12:45:25.510Z</time>
      </trkpt>
      <trkpt lat="44.15542" lon="0.82881">
        <ele>141</ele>
        <time>2025-04-13T12:45:57.510Z</time>
      </trkpt>
      <trkpt lat="44.15544" lon="0.82881">
        <ele>138</ele>
        <time>2025-04-13T12:46:13.510Z</time>
      </trkpt>
      <trkpt lat="44.15546" lon="0.82882">
        <ele>139</ele>
        <time>2025-04-13T12:47:17.510Z</time>
      </trkpt>
      <trkpt lat="44.15546" lon="0.82882">
        <ele>142</ele>
        <time>2025-04-13T12:47:25.510Z</time>
      </trkpt>
      <trkpt lat="44.15542" lon="0.82883">
        <ele>141</ele>
        <time>2025-04-13T12:47:57.510Z</time>
      </trkpt>
      <trkpt lat="44.15542" lon="0.82883">
        <ele>140</ele>
        <time>2025-04-13T12:48:13.510Z</time>
      </trkpt>
      <trkpt lat="44.15543" lon="0.82884">
        <ele>142</ele>
        <time>2025-04-13T12:48:29.510Z</time>
      </trkpt>
      <trkpt lat="44.15543" lon="0.82881">
        <ele>141</ele>
        <time>2025-04-13T12:49:01.510Z</time>
      </trkpt>
      <trkpt lat="44.15545" lon="0.82881">
        <ele>146</ele>
        <time>2025-04-13T12:49:49.510Z</time>
      </trkpt>
      <trkpt lat="44.15545" lon="0.8288">
        <ele>143</ele>
        <time>2025-04-13T12:50:05.510Z</time>
      </trkpt>
      <trkpt lat="44.15545" lon="0.82881">
        <ele>142</ele>
        <time>2025-04-13T12:50:13.510Z</time>
      </trkpt>
      <trkpt lat="44.15544" lon="0.8288">
        <ele>141</ele>
        <time>2025-04-13T12:50:21.510Z</time>
      </trkpt>
      <trkpt lat="44.15545" lon="0.82882">
        <ele>142</ele>
        <time>2025-04-13T12:51:57.510Z</time>
      </trkpt>
      <trkpt lat="44.15552" lon="0.82869">
        <ele>142</ele>
        <time>2025-04-13T12:52:21.510Z</time>
      </trkpt>
      <trkpt lat="44.1556" lon="0.82866">
        <ele>143</ele>
        <time>2025-04-13T12:52:29.510Z</time>
      </trkpt>
      <trkpt lat="44.15568" lon="0.82864">
        <ele>144</ele>
        <time>2025-04-13T12:52:37.511Z</time>
      </trkpt>
      <trkpt lat="44.15581" lon="0.82865">
        <ele>143</ele>
        <time>2025-04-13T12:52:47.510Z</time>
      </trkpt>
      <trkpt lat="44.15593" lon="0.82863">
        <ele>146</ele>
        <time>2025-04-13T12:52:59.510Z</time>
      </trkpt>
      <trkpt lat="44.15595" lon="0.82861">
        <ele>146</ele>
        <time>2025-04-13T12:53:03.510Z</time>
      </trkpt>
      <trkpt lat="44.156" lon="0.82859">
        <ele>145</ele>
        <time>2025-04-13T12:53:09.510Z</time>
      </trkpt>
      <trkpt lat="44.15603" lon="0.8286">
        <ele>145</ele>
        <time>2025-04-13T12:53:11.510Z</time>
      </trkpt>
      <trkpt lat="44.15606" lon="0.82859">
        <ele>144</ele>
        <time>2025-04-13T12:53:15.510Z</time>
      </trkpt>
      <trkpt lat="44.15616" lon="0.82858">
        <ele>143</ele>
        <time>2025-04-13T12:53:23.510Z</time>
      </trkpt>
      <trkpt lat="44.15618" lon="0.82857">
        <ele>144</ele>
        <time>2025-04-13T12:53:25.510Z</time>
      </trkpt>
      <trkpt lat="44.15636" lon="0.82853">
        <ele>148</ele>
        <time>2025-04-13T12:53:41.510Z</time>
      </trkpt>
      <trkpt lat="44.15652" lon="0.82853">
        <ele>147</ele>
        <time>2025-04-13T12:53:57.510Z</time>
      </trkpt>
      <trkpt lat="44.15677" lon="0.82849">
        <ele>148</ele>
        <time>2025-04-13T12:54:21.510Z</time>
      </trkpt>
      <trkpt lat="44.15686" lon="0.82849">
        <ele>149</ele>
        <time>2025-04-13T12:54:29.510Z</time>
      </trkpt>
      <trkpt lat="44.15709" lon="0.82844">
        <ele>146</ele>
        <time>2025-04-13T12:54:49.511Z</time>
      </trkpt>
      <trkpt lat="44.15713" lon="0.82841">
        <ele>145</ele>
        <time>2025-04-13T12:54:53.510Z</time>
      </trkpt>
      <trkpt lat="44.15721" lon="0.82841">
        <ele>148</ele>
        <time>2025-04-13T12:55:01.510Z</time>
      </trkpt>
      <trkpt lat="44.15736" lon="0.82836">
        <ele>146</ele>
        <time>2025-04-13T12:55:17.510Z</time>
      </trkpt>
      <trkpt lat="44.15743" lon="0.82837">
        <ele>148</ele>
        <time>2025-04-13T12:55:25.510Z</time>
      </trkpt>
      <trkpt lat="44.15746" lon="0.82836">
        <ele>148</ele>
        <time>2025-04-13T12:55:29.511Z</time>
      </trkpt>
      <trkpt lat="44.15749" lon="0.82833">
        <ele>148</ele>
        <time>2025-04-13T12:55:33.510Z</time>
      </trkpt>
      <trkpt lat="44.15764" lon="0.82829">
        <ele>150</ele>
        <time>2025-04-13T12:55:49.510Z</time>
      </trkpt>
      <trkpt lat="44.15771" lon="0.82829">
        <ele>151</ele>
        <time>2025-04-13T12:55:57.510Z</time>
      </trkpt>
      <trkpt lat="44.15773" lon="0.82827">
        <ele>151</ele>
        <time>2025-04-13T12:56:01.510Z</time>
      </trkpt>
      <trkpt lat="44.15789" lon="0.82825">
        <ele>150</ele>
        <time>2025-04-13T12:56:17.510Z</time>
      </trkpt>
      <trkpt lat="44.15808" lon="0.82827">
        <ele>148</ele>
        <time>2025-04-13T12:56:33.510Z</time>
      </trkpt>
      <trkpt lat="44.15816" lon="0.82828">
        <ele>149</ele>
        <time>2025-04-13T12:56:41.510Z</time>
      </trkpt>
      <trkpt lat="44.15833" lon="0.82835">
        <ele>149</ele>
        <time>2025-04-13T12:56:57.510Z</time>
      </trkpt>
      <trkpt lat="44.15842" lon="0.82836">
        <ele>151</ele>
        <time>2025-04-13T12:57:05.510Z</time>
      </trkpt>
      <trkpt lat="44.15846" lon="0.82838">
        <ele>151</ele>
        <time>2025-04-13T12:57:09.510Z</time>
      </trkpt>
      <trkpt lat="44.15855" lon="0.82839">
        <ele>151</ele>
        <time>2025-04-13T12:57:17.510Z</time>
      </trkpt>
      <trkpt lat="44.15873" lon="0.82846">
        <ele>150</ele>
        <time>2025-04-13T12:57:57.510Z</time>
      </trkpt>
      <trkpt lat="44.15874" lon="0.82845">
        <ele>151</ele>
        <time>2025-04-13T12:58:05.510Z</time>
      </trkpt>
      <trkpt lat="44.15882" lon="0.82846">
        <ele>152</ele>
        <time>2025-04-13T12:58:13.511Z</time>
      </trkpt>
      <trkpt lat="44.15891" lon="0.82849">
        <ele>152</ele>
        <time>2025-04-13T12:58:21.510Z</time>
      </trkpt>
      <trkpt lat="44.15899" lon="0.82854">
        <ele>151</ele>
        <time>2025-04-13T12:58:29.510Z</time>
      </trkpt>
      <trkpt lat="44.15908" lon="0.82855">
        <ele>151</ele>
        <time>2025-04-13T12:58:37.510Z</time>
      </trkpt>
      <trkpt lat="44.15912" lon="0.82857">
        <ele>151</ele>
        <time>2025-04-13T12:58:41.510Z</time>
      </trkpt>
      <trkpt lat="44.15939" lon="0.82861">
        <ele>150</ele>
        <time>2025-04-13T12:59:05.511Z</time>
      </trkpt>
      <trkpt lat="44.15958" lon="0.82861">
        <ele>150</ele>
        <time>2025-04-13T12:59:21.510Z</time>
      </trkpt>
      <trkpt lat="44.15962" lon="0.82859">
        <ele>150</ele>
        <time>2025-04-13T12:59:25.510Z</time>
      </trkpt>
      <trkpt lat="44.15981" lon="0.82861">
        <ele>151</ele>
        <time>2025-04-13T12:59:41.510Z</time>
      </trkpt>
      <trkpt lat="44.15991" lon="0.82861">
        <ele>151</ele>
        <time>2025-04-13T12:59:49.510Z</time>
      </trkpt>
      <trkpt lat="44.16009" lon="0.82864">
        <ele>152</ele>
        <time>2025-04-13T13:00:05.510Z</time>
      </trkpt>
      <trkpt lat="44.16026" lon="0.82869">
        <ele>153</ele>
        <time>2025-04-13T13:00:21.510Z</time>
      </trkpt>
      <trkpt lat="44.16034" lon="0.82873">
        <ele>152</ele>
        <time>2025-04-13T13:00:29.510Z</time>
      </trkpt>
      <trkpt lat="44.16058" lon="0.82889">
        <ele>152</ele>
        <time>2025-04-13T13:00:53.510Z</time>
      </trkpt>
      <trkpt lat="44.16088" lon="0.82915">
        <ele>152</ele>
        <time>2025-04-13T13:01:25.510Z</time>
      </trkpt>
      <trkpt lat="44.16096" lon="0.82922">
        <ele>152</ele>
        <time>2025-04-13T13:01:33.510Z</time>
      </trkpt>
      <trkpt lat="44.16127" lon="0.82962">
        <ele>154</ele>
        <time>2025-04-13T13:02:13.510Z</time>
      </trkpt>
      <trkpt lat="44.16141" lon="0.82977">
        <ele>155</ele>
        <time>2025-04-13T13:02:29.511Z</time>
      </trkpt>
      <trkpt lat="44.16156" lon="0.82989">
        <ele>155</ele>
        <time>2025-04-13T13:02:45.510Z</time>
      </trkpt>
      <trkpt lat="44.16172" lon="0.82998">
        <ele>156</ele>
        <time>2025-04-13T13:03:01.510Z</time>
      </trkpt>
      <trkpt lat="44.16181" lon="0.83002">
        <ele>156</ele>
        <time>2025-04-13T13:03:09.510Z</time>
      </trkpt>
      <trkpt lat="44.16188" lon="0.83007">
        <ele>155</ele>
        <time>2025-04-13T13:03:17.510Z</time>
      </trkpt>
      <trkpt lat="44.1619" lon="0.83007">
        <ele>155</ele>
        <time>2025-04-13T13:03:21.510Z</time>
      </trkpt>
      <trkpt lat="44.16195" lon="0.83011">
        <ele>155</ele>
        <time>2025-04-13T13:03:29.510Z</time>
      </trkpt>
      <trkpt lat="44.16205" lon="0.83013">
        <ele>158</ele>
        <time>2025-04-13T13:03:41.510Z</time>
      </trkpt>
      <trkpt lat="44.16211" lon="0.83018">
        <ele>158</ele>
        <time>2025-04-13T13:03:47.510Z</time>
      </trkpt>
      <trkpt lat="44.16225" lon="0.83026">
        <ele>158</ele>
        <time>2025-04-13T13:04:03.510Z</time>
      </trkpt>
      <trkpt lat="44.16232" lon="0.83027">
        <ele>159</ele>
        <time>2025-04-13T13:04:11.510Z</time>
      </trkpt>
      <trkpt lat="44.16237" lon="0.83025">
        <ele>159</ele>
        <time>2025-04-13T13:04:15.511Z</time>
      </trkpt>
      <trkpt lat="44.16247" lon="0.83031">
        <ele>159</ele>
        <time>2025-04-13T13:04:27.510Z</time>
      </trkpt>
      <trkpt lat="44.1625" lon="0.83035">
        <ele>159</ele>
        <time>2025-04-13T13:04:31.510Z</time>
      </trkpt>
      <trkpt lat="44.16253" lon="0.83037">
        <ele>159</ele>
        <time>2025-04-13T13:04:35.510Z</time>
      </trkpt>
      <trkpt lat="44.16257" lon="0.83037">
        <ele>159</ele>
        <time>2025-04-13T13:04:39.510Z</time>
      </trkpt>
      <trkpt lat="44.16265" lon="0.83043">
        <ele>159</ele>
        <time>2025-04-13T13:04:47.510Z</time>
      </trkpt>
      <trkpt lat="44.16269" lon="0.83045">
        <ele>159</ele>
        <time>2025-04-13T13:04:51.510Z</time>
      </trkpt>
      <trkpt lat="44.16275" lon="0.83046">
        <ele>160</ele>
        <time>2025-04-13T13:04:59.511Z</time>
      </trkpt>
      <trkpt lat="44.16284" lon="0.8305">
        <ele>160</ele>
        <time>2025-04-13T13:05:07.510Z</time>
      </trkpt>
      <trkpt lat="44.16295" lon="0.83059">
        <ele>160</ele>
        <time>2025-04-13T13:05:19.510Z</time>
      </trkpt>
      <trkpt lat="44.16298" lon="0.83065">
        <ele>159</ele>
        <time>2025-04-13T13:05:23.510Z</time>
      </trkpt>
      <trkpt lat="44.16318" lon="0.83082">
        <ele>155</ele>
        <time>2025-04-13T13:05:47.510Z</time>
      </trkpt>
      <trkpt lat="44.16322" lon="0.83084">
        <ele>155</ele>
        <time>2025-04-13T13:05:51.510Z</time>
      </trkpt>
      <trkpt lat="44.16326" lon="0.83085">
        <ele>157</ele>
        <time>2025-04-13T13:05:55.510Z</time>
      </trkpt>
      <trkpt lat="44.16349" lon="0.83101">
        <ele>156</ele>
        <time>2025-04-13T13:06:19.510Z</time>
      </trkpt>
      <trkpt lat="44.16357" lon="0.83108">
        <ele>156</ele>
        <time>2025-04-13T13:06:27.510Z</time>
      </trkpt>
      <trkpt lat="44.16365" lon="0.83112">
        <ele>157</ele>
        <time>2025-04-13T13:06:35.510Z</time>
      </trkpt>
      <trkpt lat="44.16389" lon="0.8313">
        <ele>158</ele>
        <time>2025-04-13T13:06:59.510Z</time>
      </trkpt>
      <trkpt lat="44.1642" lon="0.83155">
        <ele>155</ele>
        <time>2025-04-13T13:07:31.510Z</time>
      </trkpt>
      <trkpt lat="44.16449" lon="0.83186">
        <ele>156</ele>
        <time>2025-04-13T13:08:03.510Z</time>
      </trkpt>
      <trkpt lat="44.16462" lon="0.83204">
        <ele>155</ele>
        <time>2025-04-13T13:08:19.510Z</time>
      </trkpt>
      <trkpt lat="44.16479" lon="0.8323">
        <ele>155</ele>
        <time>2025-04-13T13:08:43.510Z</time>
      </trkpt>
      <trkpt lat="44.16494" lon="0.8326">
        <ele>154</ele>
        <time>2025-04-13T13:09:07.510Z</time>
      </trkpt>
      <trkpt lat="44.16496" lon="0.83272">
        <ele>153</ele>
        <time>2025-04-13T13:09:23.510Z</time>
      </trkpt>
      <trkpt lat="44.16497" lon="0.83272">
        <ele>153</ele>
        <time>2025-04-13T13:09:31.510Z</time>
      </trkpt>
      <trkpt lat="44.16496" lon="0.8327">
        <ele>153</ele>
        <time>2025-04-13T13:09:47.510Z</time>
      </trkpt>
      <trkpt lat="44.16494" lon="0.83271">
        <ele>154</ele>
        <time>2025-04-13T13:10:07.510Z</time>
      </trkpt>
      <trkpt lat="44.16494" lon="0.83275">
        <ele>155</ele>
        <time>2025-04-13T13:10:23.510Z</time>
      </trkpt>
      <trkpt lat="44.16493" lon="0.83272">
        <ele>155</ele>
        <time>2025-04-13T13:11:03.510Z</time>
      </trkpt>
      <trkpt lat="44.16495" lon="0.83272">
        <ele>156</ele>
        <time>2025-04-13T13:11:07.511Z</time>
      </trkpt>
      <trkpt lat="44.16494" lon="0.83271">
        <ele>158</ele>
        <time>2025-04-13T13:11:23.510Z</time>
      </trkpt>
      <trkpt lat="44.16491" lon="0.83268">
        <ele>158</ele>
        <time>2025-04-13T13:11:29.510Z</time>
      </trkpt>
      <trkpt lat="44.16493" lon="0.83261">
        <ele>156</ele>
        <time>2025-04-13T13:12:41.510Z</time>
      </trkpt>
      <trkpt lat="44.16495" lon="0.83265">
        <ele>157</ele>
        <time>2025-04-13T13:12:45.510Z</time>
      </trkpt>
      <trkpt lat="44.16498" lon="0.83267">
        <ele>157</ele>
        <time>2025-04-13T13:12:49.510Z</time>
      </trkpt>
      <trkpt lat="44.16499" lon="0.83272">
        <ele>157</ele>
        <time>2025-04-13T13:12:52.510Z</time>
      </trkpt>
      <trkpt lat="44.16502" lon="0.83274">
        <ele>157</ele>
        <time>2025-04-13T13:12:53.510Z</time>
      </trkpt>
      <trkpt lat="44.16504" lon="0.83274">
        <ele>157</ele>
        <time>2025-04-13T13:12:54.510Z</time>
      </trkpt>
      <trkpt lat="44.16505" lon="0.83269">
        <ele>156</ele>
        <time>2025-04-13T13:13:02.510Z</time>
      </trkpt>
      <trkpt lat="44.16506" lon="0.83269">
        <ele>156</ele>
        <time>2025-04-13T13:13:04.510Z</time>
      </trkpt>
      <trkpt lat="44.16506" lon="0.83269">
        <ele>156</ele>
        <time>2025-04-13T13:13:05.510Z</time>
      </trkpt>
      <trkpt lat="44.16505" lon="0.83267">
        <ele>156</ele>
        <time>2025-04-13T13:13:07.510Z</time>
      </trkpt>
      <trkpt lat="44.16507" lon="0.83264">
        <ele>157</ele>
        <time>2025-04-13T13:13:11.510Z</time>
      </trkpt>
      <trkpt lat="44.16506" lon="0.83266">
        <ele>158</ele>
        <time>2025-04-13T13:13:19.510Z</time>
      </trkpt>
      <trkpt lat="44.16504" lon="0.83265">
        <ele>159</ele>
        <time>2025-04-13T13:13:35.510Z</time>
      </trkpt>
      <trkpt lat="44.16504" lon="0.83268">
        <ele>153</ele>
        <time>2025-04-13T13:14:35.511Z</time>
      </trkpt>
      <trkpt lat="44.16503" lon="0.83269">
        <ele>153</ele>
        <time>2025-04-13T13:14:43.510Z</time>
      </trkpt>
      <trkpt lat="44.16504" lon="0.8327">
        <ele>155</ele>
        <time>2025-04-13T13:14:59.511Z</time>
      </trkpt>
      <trkpt lat="44.16501" lon="0.83278">
        <ele>156</ele>
        <time>2025-04-13T13:15:13.510Z</time>
      </trkpt>
      <trkpt lat="44.16488" lon="0.83287">
        <ele>154</ele>
        <time>2025-04-13T13:15:21.510Z</time>
      </trkpt>
      <trkpt lat="44.16481" lon="0.83296">
        <ele>155</ele>
        <time>2025-04-13T13:15:29.510Z</time>
      </trkpt>
      <trkpt lat="44.16455" lon="0.83342">
        <ele>152</ele>
        <time>2025-04-13T13:16:09.510Z</time>
      </trkpt>
      <trkpt lat="44.16447" lon="0.8335">
        <ele>151</ele>
        <time>2025-04-13T13:16:17.510Z</time>
      </trkpt>
      <trkpt lat="44.16443" lon="0.83353">
        <ele>152</ele>
        <time>2025-04-13T13:16:21.510Z</time>
      </trkpt>
      <trkpt lat="44.16437" lon="0.83355">
        <ele>152</ele>
        <time>2025-04-13T13:16:29.511Z</time>
      </trkpt>
      <trkpt lat="44.16435" lon="0.83353">
        <ele>152</ele>
        <time>2025-04-13T13:17:01.510Z</time>
      </trkpt>
      <trkpt lat="44.16435" lon="0.83355">
        <ele>152</ele>
        <time>2025-04-13T13:17:09.510Z</time>
      </trkpt>
      <trkpt lat="44.16429" lon="0.83361">
        <ele>151</ele>
        <time>2025-04-13T13:17:19.510Z</time>
      </trkpt>
      <trkpt lat="44.16427" lon="0.83361">
        <ele>151</ele>
        <time>2025-04-13T13:17:23.510Z</time>
      </trkpt>
      <trkpt lat="44.1642" lon="0.83374">
        <ele>151</ele>
        <time>2025-04-13T13:17:39.510Z</time>
      </trkpt>
      <trkpt lat="44.16412" lon="0.83405">
        <ele>149</ele>
        <time>2025-04-13T13:18:03.510Z</time>
      </trkpt>
      <trkpt lat="44.16406" lon="0.83418">
        <ele>148</ele>
        <time>2025-04-13T13:18:15.510Z</time>
      </trkpt>
      <trkpt lat="44.16394" lon="0.83432">
        <ele>145</ele>
        <time>2025-04-13T13:18:29.510Z</time>
      </trkpt>
      <trkpt lat="44.1637" lon="0.83472">
        <ele>143</ele>
        <time>2025-04-13T13:19:03.510Z</time>
      </trkpt>
      <trkpt lat="44.16369" lon="0.83476">
        <ele>143</ele>
        <time>2025-04-13T13:19:05.510Z</time>
      </trkpt>
      <trkpt lat="44.16364" lon="0.83483">
        <ele>143</ele>
        <time>2025-04-13T13:19:09.510Z</time>
      </trkpt>
      <trkpt lat="44.16362" lon="0.83487">
        <ele>142</ele>
        <time>2025-04-13T13:19:13.510Z</time>
      </trkpt>
      <trkpt lat="44.1636" lon="0.83489">
        <ele>142</ele>
        <time>2025-04-13T13:19:15.510Z</time>
      </trkpt>
      <trkpt lat="44.16351" lon="0.83507">
        <ele>141</ele>
        <time>2025-04-13T13:19:31.510Z</time>
      </trkpt>
      <trkpt lat="44.16343" lon="0.83515">
        <ele>142</ele>
        <time>2025-04-13T13:19:39.510Z</time>
      </trkpt>
      <trkpt lat="44.16334" lon="0.83528">
        <ele>138</ele>
        <time>2025-04-13T13:19:51.510Z</time>
      </trkpt>
      <trkpt lat="44.1633" lon="0.83536">
        <ele>139</ele>
        <time>2025-04-13T13:19:59.510Z</time>
      </trkpt>
      <trkpt lat="44.16327" lon="0.83539">
        <ele>138</ele>
        <time>2025-04-13T13:20:03.510Z</time>
      </trkpt>
      <trkpt lat="44.16325" lon="0.83544">
        <ele>139</ele>
        <time>2025-04-13T13:20:07.510Z</time>
      </trkpt>
      <trkpt lat="44.16315" lon="0.83555">
        <ele>140</ele>
        <time>2025-04-13T13:20:19.510Z</time>
      </trkpt>
      <trkpt lat="44.16308" lon="0.83561">
        <ele>142</ele>
        <time>2025-04-13T13:20:27.510Z</time>
      </trkpt>
      <trkpt lat="44.163" lon="0.83571">
        <ele>140</ele>
        <time>2025-04-13T13:20:35.510Z</time>
      </trkpt>
      <trkpt lat="44.16289" lon="0.8358">
        <ele>139</ele>
        <time>2025-04-13T13:20:43.510Z</time>
      </trkpt>
      <trkpt lat="44.16283" lon="0.83588">
        <ele>136</ele>
        <time>2025-04-13T13:20:51.510Z</time>
      </trkpt>
      <trkpt lat="44.16277" lon="0.8359">
        <ele>135</ele>
        <time>2025-04-13T13:20:57.510Z</time>
      </trkpt>
      <trkpt lat="44.16275" lon="0.83593">
        <ele>135</ele>
        <time>2025-04-13T13:21:01.510Z</time>
      </trkpt>
      <trkpt lat="44.16263" lon="0.83604">
        <ele>136</ele>
        <time>2025-04-13T13:21:17.510Z</time>
      </trkpt>
      <trkpt lat="44.16253" lon="0.83619">
        <ele>133</ele>
        <time>2025-04-13T13:21:33.510Z</time>
      </trkpt>
      <trkpt lat="44.16245" lon="0.83637">
        <ele>130</ele>
        <time>2025-04-13T13:21:49.510Z</time>
      </trkpt>
      <trkpt lat="44.16235" lon="0.83653">
        <ele>128</ele>
        <time>2025-04-13T13:22:05.510Z</time>
      </trkpt>
      <trkpt lat="44.1623" lon="0.83665">
        <ele>128</ele>
        <time>2025-04-13T13:22:17.510Z</time>
      </trkpt>
      <trkpt lat="44.1623" lon="0.83675">
        <ele>126</ele>
        <time>2025-04-13T13:22:33.510Z</time>
      </trkpt>
      <trkpt lat="44.16229" lon="0.83676">
        <ele>126</ele>
        <time>2025-04-13T13:22:37.510Z</time>
      </trkpt>
      <trkpt lat="44.16226" lon="0.83675">
        <ele>128</ele>
        <time>2025-04-13T13:23:09.510Z</time>
      </trkpt>
      <trkpt lat="44.16226" lon="0.83672">
        <ele>128</ele>
        <time>2025-04-13T13:23:41.510Z</time>
      </trkpt>
      <trkpt lat="44.16224" lon="0.83675">
        <ele>126</ele>
        <time>2025-04-13T13:24:29.510Z</time>
      </trkpt>
      <trkpt lat="44.16221" lon="0.83677">
        <ele>124</ele>
        <time>2025-04-13T13:24:41.510Z</time>
      </trkpt>
      <trkpt lat="44.16218" lon="0.83677">
        <ele>126</ele>
        <time>2025-04-13T13:25:29.510Z</time>
      </trkpt>
      <trkpt lat="44.16218" lon="0.83676">
        <ele>127</ele>
        <time>2025-04-13T13:26:01.510Z</time>
      </trkpt>
      <trkpt lat="44.16219" lon="0.83678">
        <ele>124</ele>
        <time>2025-04-13T13:26:33.510Z</time>
      </trkpt>
      <trkpt lat="44.16212" lon="0.83678">
        <ele>124</ele>
        <time>2025-04-13T13:26:45.510Z</time>
      </trkpt>
      <trkpt lat="44.16209" lon="0.83679">
        <ele>125</ele>
        <time>2025-04-13T13:26:49.510Z</time>
      </trkpt>
      <trkpt lat="44.16205" lon="0.83676">
        <ele>125</ele>
        <time>2025-04-13T13:26:57.510Z</time>
      </trkpt>
      <trkpt lat="44.16201" lon="0.83677">
        <ele>126</ele>
        <time>2025-04-13T13:27:03.510Z</time>
      </trkpt>
      <trkpt lat="44.16197" lon="0.83676">
        <ele>125</ele>
        <time>2025-04-13T13:27:07.510Z</time>
      </trkpt>
      <trkpt lat="44.16193" lon="0.83678">
        <ele>124</ele>
        <time>2025-04-13T13:27:11.510Z</time>
      </trkpt>
      <trkpt lat="44.16189" lon="0.83678">
        <ele>123</ele>
        <time>2025-04-13T13:27:15.510Z</time>
      </trkpt>
      <trkpt lat="44.1618" lon="0.83681">
        <ele>123</ele>
        <time>2025-04-13T13:27:23.510Z</time>
      </trkpt>
      <trkpt lat="44.16152" lon="0.83686">
        <ele>117</ele>
        <time>2025-04-13T13:27:47.510Z</time>
      </trkpt>
      <trkpt lat="44.16143" lon="0.83689">
        <ele>116</ele>
        <time>2025-04-13T13:27:55.510Z</time>
      </trkpt>
      <trkpt lat="44.16139" lon="0.8369">
        <ele>115</ele>
        <time>2025-04-13T13:27:59.510Z</time>
      </trkpt>
      <trkpt lat="44.16135" lon="0.83688">
        <ele>115</ele>
        <time>2025-04-13T13:28:03.510Z</time>
      </trkpt>
      <trkpt lat="44.16126" lon="0.8369">
        <ele>114</ele>
        <time>2025-04-13T13:28:11.510Z</time>
      </trkpt>
      <trkpt lat="44.16102" lon="0.83703">
        <ele>111</ele>
        <time>2025-04-13T13:28:35.510Z</time>
      </trkpt>
      <trkpt lat="44.16098" lon="0.83704">
        <ele>110</ele>
        <time>2025-04-13T13:28:39.510Z</time>
      </trkpt>
      <trkpt lat="44.16091" lon="0.8371">
        <ele>109</ele>
        <time>2025-04-13T13:28:47.510Z</time>
      </trkpt>
      <trkpt lat="44.16088" lon="0.83713">
        <ele>106</ele>
        <time>2025-04-13T13:29:19.510Z</time>
      </trkpt>
      <trkpt lat="44.16074" lon="0.83718">
        <ele>108</ele>
        <time>2025-04-13T13:29:35.510Z</time>
      </trkpt>
      <trkpt lat="44.1604" lon="0.83741">
        <ele>102</ele>
        <time>2025-04-13T13:30:15.510Z</time>
      </trkpt>
      <trkpt lat="44.16038" lon="0.8374">
        <ele>100</ele>
        <time>2025-04-13T13:30:23.510Z</time>
      </trkpt>
      <trkpt lat="44.16022" lon="0.83747">
        <ele>97</ele>
        <time>2025-04-13T13:30:39.510Z</time>
      </trkpt>
      <trkpt lat="44.16007" lon="0.83752">
        <ele>97</ele>
        <time>2025-04-13T13:30:53.511Z</time>
      </trkpt>
      <trkpt lat="44.1599" lon="0.83752">
        <ele>96</ele>
        <time>2025-04-13T13:31:09.510Z</time>
      </trkpt>
      <trkpt lat="44.15969" lon="0.83749">
        <ele>92</ele>
        <time>2025-04-13T13:31:27.510Z</time>
      </trkpt>
      <trkpt lat="44.15971" lon="0.83746">
        <ele>92</ele>
        <time>2025-04-13T13:31:31.510Z</time>
      </trkpt>
      <trkpt lat="44.15973" lon="0.83747">
        <ele>90</ele>
        <time>2025-04-13T13:31:35.510Z</time>
      </trkpt>
      <trkpt lat="44.15971" lon="0.83748">
        <ele>89</ele>
        <time>2025-04-13T13:31:41.510Z</time>
      </trkpt>
      <trkpt lat="44.15962" lon="0.83747">
        <ele>89</ele>
        <time>2025-04-13T13:31:49.510Z</time>
      </trkpt>
      <trkpt lat="44.15954" lon="0.83748">
        <ele>91</ele>
        <time>2025-04-13T13:31:57.510Z</time>
      </trkpt>
      <trkpt lat="44.15946" lon="0.83748">
        <ele>92</ele>
        <time>2025-04-13T13:32:05.510Z</time>
      </trkpt>
      <trkpt lat="44.15936" lon="0.8375">
        <ele>92</ele>
        <time>2025-04-13T13:32:13.510Z</time>
      </trkpt>
      <trkpt lat="44.15931" lon="0.83749">
        <ele>92</ele>
        <time>2025-04-13T13:32:17.510Z</time>
      </trkpt>
      <trkpt lat="44.15929" lon="0.8375">
        <ele>91</ele>
        <time>2025-04-13T13:32:19.510Z</time>
      </trkpt>
      <trkpt lat="44.15923" lon="0.83747">
        <ele>90</ele>
        <time>2025-04-13T13:32:25.510Z</time>
      </trkpt>
      <trkpt lat="44.15916" lon="0.83746">
        <ele>88</ele>
        <time>2025-04-13T13:32:33.510Z</time>
      </trkpt>
      <trkpt lat="44.15914" lon="0.83742">
        <ele>89</ele>
        <time>2025-04-13T13:32:41.510Z</time>
      </trkpt>
      <trkpt lat="44.15914" lon="0.83743">
        <ele>89</ele>
        <time>2025-04-13T13:32:45.510Z</time>
      </trkpt>
      <trkpt lat="44.1591" lon="0.83746">
        <ele>90</ele>
        <time>2025-04-13T13:32:49.510Z</time>
      </trkpt>
      <trkpt lat="44.15888" lon="0.83748">
        <ele>88</ele>
        <time>2025-04-13T13:33:09.510Z</time>
      </trkpt>
      <trkpt lat="44.15883" lon="0.83746">
        <ele>88</ele>
        <time>2025-04-13T13:33:13.510Z</time>
      </trkpt>
      <trkpt lat="44.15882" lon="0.83745">
        <ele>86</ele>
        <time>2025-04-13T13:33:21.510Z</time>
      </trkpt>
      <trkpt lat="44.1588" lon="0.83747">
        <ele>87</ele>
        <time>2025-04-13T13:33:25.510Z</time>
      </trkpt>
      <trkpt lat="44.15861" lon="0.83749">
        <ele>87</ele>
        <time>2025-04-13T13:33:41.510Z</time>
      </trkpt>
      <trkpt lat="44.15855" lon="0.83749">
        <ele>87</ele>
        <time>2025-04-13T13:33:45.510Z</time>
      </trkpt>
      <trkpt lat="44.15853" lon="0.8375">
        <ele>87</ele>
        <time>2025-04-13T13:33:47.510Z</time>
      </trkpt>
      <trkpt lat="44.15848" lon="0.8375">
        <ele>86</ele>
        <time>2025-04-13T13:33:51.510Z</time>
      </trkpt>
      <trkpt lat="44.15845" lon="0.83752">
        <ele>87</ele>
        <time>2025-04-13T13:33:59.510Z</time>
      </trkpt>
      <trkpt lat="44.15846" lon="0.83752">
        <ele>87</ele>
        <time>2025-04-13T13:34:03.510Z</time>
      </trkpt>
      <trkpt lat="44.15838" lon="0.83753">
        <ele>90</ele>
        <time>2025-04-13T13:34:51.510Z</time>
      </trkpt>
      <trkpt lat="44.15824" lon="0.8376">
        <ele>87</ele>
        <time>2025-04-13T13:35:03.510Z</time>
      </trkpt>
      <trkpt lat="44.15808" lon="0.83764">
        <ele>86</ele>
        <time>2025-04-13T13:35:15.510Z</time>
      </trkpt>
      <trkpt lat="44.15793" lon="0.83766">
        <ele>86</ele>
        <time>2025-04-13T13:35:25.511Z</time>
      </trkpt>
      <trkpt lat="44.15788" lon="0.83765">
        <ele>87</ele>
        <time>2025-04-13T13:35:29.510Z</time>
      </trkpt>
      <trkpt lat="44.15782" lon="0.83766">
        <ele>87</ele>
        <time>2025-04-13T13:35:33.510Z</time>
      </trkpt>
      <trkpt lat="44.15751" lon="0.83761">
        <ele>83</ele>
        <time>2025-04-13T13:35:55.510Z</time>
      </trkpt>
      <trkpt lat="44.1574" lon="0.83758">
        <ele>83</ele>
        <time>2025-04-13T13:36:03.510Z</time>
      </trkpt>
      <trkpt lat="44.15729" lon="0.8376">
        <ele>83</ele>
        <time>2025-04-13T13:36:11.510Z</time>
      </trkpt>
      <trkpt lat="44.15705" lon="0.8377">
        <ele>83</ele>
        <time>2025-04-13T13:36:31.510Z</time>
      </trkpt>
      <trkpt lat="44.15696" lon="0.83778">
        <ele>83</ele>
        <time>2025-04-13T13:36:39.510Z</time>
      </trkpt>
      <trkpt lat="44.15691" lon="0.83783">
        <ele>83</ele>
        <time>2025-04-13T13:36:43.510Z</time>
      </trkpt>
      <trkpt lat="44.15688" lon="0.83788">
        <ele>83</ele>
        <time>2025-04-13T13:36:47.510Z</time>
      </trkpt>
      <trkpt lat="44.15686" lon="0.83801">
        <ele>83</ele>
        <time>2025-04-13T13:36:55.510Z</time>
      </trkpt>
      <trkpt lat="44.15684" lon="0.83803">
        <ele>83</ele>
        <time>2025-04-13T13:36:57.510Z</time>
      </trkpt>
      <trkpt lat="44.15676" lon="0.8381">
        <ele>85</ele>
        <time>2025-04-13T13:37:05.510Z</time>
      </trkpt>
      <trkpt lat="44.15675" lon="0.83813">
        <ele>84</ele>
        <time>2025-04-13T13:37:07.510Z</time>
      </trkpt>
      <trkpt lat="44.1566" lon="0.83822">
        <ele>82</ele>
        <time>2025-04-13T13:37:39.510Z</time>
      </trkpt>
      <trkpt lat="44.1566" lon="0.83824">
        <ele>79</ele>
        <time>2025-04-13T13:38:07.511Z</time>
      </trkpt>
      <trkpt lat="44.1566" lon="0.83827">
        <ele>78</ele>
        <time>2025-04-13T13:38:39.510Z</time>
      </trkpt>
      <trkpt lat="44.15657" lon="0.83826">
        <ele>82</ele>
        <time>2025-04-13T13:38:55.510Z</time>
      </trkpt>
      <trkpt lat="44.15655" lon="0.83822">
        <ele>84</ele>
        <time>2025-04-13T13:39:27.510Z</time>
      </trkpt>
      <trkpt lat="44.15655" lon="0.83821">
        <ele>78</ele>
        <time>2025-04-13T13:40:31.510Z</time>
      </trkpt>
      <trkpt lat="44.15656" lon="0.8382">
        <ele>80</ele>
        <time>2025-04-13T13:41:03.510Z</time>
      </trkpt>
      <trkpt lat="44.15639" lon="0.83829">
        <ele>80</ele>
        <time>2025-04-13T13:41:43.510Z</time>
      </trkpt>
      <trkpt lat="44.15635" lon="0.83832">
        <ele>80</ele>
        <time>2025-04-13T13:41:47.510Z</time>
      </trkpt>
      <trkpt lat="44.15608" lon="0.83847">
        <ele>78</ele>
        <time>2025-04-13T13:42:11.510Z</time>
      </trkpt>
      <trkpt lat="44.15575" lon="0.83878">
        <ele>78</ele>
        <time>2025-04-13T13:42:43.510Z</time>
      </trkpt>
      <trkpt lat="44.15562" lon="0.83894">
        <ele>79</ele>
        <time>2025-04-13T13:42:59.510Z</time>
      </trkpt>
      <trkpt lat="44.15538" lon="0.83934">
        <ele>81</ele>
        <time>2025-04-13T13:43:31.510Z</time>
      </trkpt>
      <trkpt lat="44.15529" lon="0.83947">
        <ele>83</ele>
        <time>2025-04-13T13:43:43.510Z</time>
      </trkpt>
      <trkpt lat="44.15523" lon="0.83958">
        <ele>83</ele>
        <time>2025-04-13T13:43:51.510Z</time>
      </trkpt>
      <trkpt lat="44.15509" lon="0.83979">
        <ele>81</ele>
        <time>2025-04-13T13:44:07.510Z</time>
      </trkpt>
      <trkpt lat="44.15497" lon="0.83993">
        <ele>80</ele>
        <time>2025-04-13T13:44:19.510Z</time>
      </trkpt>
      <trkpt lat="44.15491" lon="0.84004">
        <ele>80</ele>
        <time>2025-04-13T13:44:27.510Z</time>
      </trkpt>
      <trkpt lat="44.15484" lon="0.84014">
        <ele>81</ele>
        <time>2025-04-13T13:44:35.510Z</time>
      </trkpt>
      <trkpt lat="44.15475" lon="0.8403">
        <ele>83</ele>
        <time>2025-04-13T13:44:47.510Z</time>
      </trkpt>
      <trkpt lat="44.15472" lon="0.84034">
        <ele>83</ele>
        <time>2025-04-13T13:44:51.510Z</time>
      </trkpt>
      <trkpt lat="44.1544" lon="0.84084">
        <ele>81</ele>
        <time>2025-04-13T13:45:31.510Z</time>
      </trkpt>
      <trkpt lat="44.15434" lon="0.84091">
        <ele>81</ele>
        <time>2025-04-13T13:45:39.510Z</time>
      </trkpt>
      <trkpt lat="44.15427" lon="0.84102">
        <ele>81</ele>
        <time>2025-04-13T13:45:47.510Z</time>
      </trkpt>
      <trkpt lat="44.15413" lon="0.84117">
        <ele>81</ele>
        <time>2025-04-13T13:45:59.510Z</time>
      </trkpt>
      <trkpt lat="44.15405" lon="0.84121">
        <ele>78</ele>
        <time>2025-04-13T13:46:07.510Z</time>
      </trkpt>
      <trkpt lat="44.15397" lon="0.84128">
        <ele>78</ele>
        <time>2025-04-13T13:46:15.510Z</time>
      </trkpt>
      <trkpt lat="44.15384" lon="0.84136">
        <ele>77</ele>
        <time>2025-04-13T13:46:31.510Z</time>
      </trkpt>
      <trkpt lat="44.15383" lon="0.84143">
        <ele>76</ele>
        <time>2025-04-13T13:46:39.510Z</time>
      </trkpt>
      <trkpt lat="44.15388" lon="0.84153">
        <ele>76</ele>
        <time>2025-04-13T13:46:47.510Z</time>
      </trkpt>
      <trkpt lat="44.15392" lon="0.84162">
        <ele>74</ele>
        <time>2025-04-13T13:46:55.510Z</time>
      </trkpt>
      <trkpt lat="44.15393" lon="0.84173">
        <ele>76</ele>
        <time>2025-04-13T13:47:03.510Z</time>
      </trkpt>
      <trkpt lat="44.15392" lon="0.84178">
        <ele>77</ele>
        <time>2025-04-13T13:47:11.511Z</time>
      </trkpt>
      <trkpt lat="44.15392" lon="0.84177">
        <ele>78</ele>
        <time>2025-04-13T13:47:15.510Z</time>
      </trkpt>
      <trkpt lat="44.15389" lon="0.84177">
        <ele>77</ele>
        <time>2025-04-13T13:47:19.510Z</time>
      </trkpt>
      <trkpt lat="44.15385" lon="0.8418">
        <ele>77</ele>
        <time>2025-04-13T13:47:23.510Z</time>
      </trkpt>
      <trkpt lat="44.15382" lon="0.84184">
        <ele>78</ele>
        <time>2025-04-13T13:47:27.510Z</time>
      </trkpt>
      <trkpt lat="44.15367" lon="0.84192">
        <ele>76</ele>
        <time>2025-04-13T13:47:39.510Z</time>
      </trkpt>
      <trkpt lat="44.15353" lon="0.84202">
        <ele>75</ele>
        <time>2025-04-13T13:47:51.510Z</time>
      </trkpt>
      <trkpt lat="44.15345" lon="0.84205">
        <ele>75</ele>
        <time>2025-04-13T13:47:59.510Z</time>
      </trkpt>
      <trkpt lat="44.15337" lon="0.8421">
        <ele>75</ele>
        <time>2025-04-13T13:48:07.510Z</time>
      </trkpt>
      <trkpt lat="44.15332" lon="0.84212">
        <ele>75</ele>
        <time>2025-04-13T13:48:13.510Z</time>
      </trkpt>
      <trkpt lat="44.15329" lon="0.84211">
        <ele>76</ele>
        <time>2025-04-13T13:48:15.510Z</time>
      </trkpt>
      <trkpt lat="44.15325" lon="0.84212">
        <ele>75</ele>
        <time>2025-04-13T13:48:23.510Z</time>
      </trkpt>
      <trkpt lat="44.15319" lon="0.84218">
        <ele>73</ele>
        <time>2025-04-13T13:48:31.510Z</time>
      </trkpt>
      <trkpt lat="44.15311" lon="0.84224">
        <ele>73</ele>
        <time>2025-04-13T13:48:39.510Z</time>
      </trkpt>
      <trkpt lat="44.15293" lon="0.84234">
        <ele>73</ele>
        <time>2025-04-13T13:48:55.510Z</time>
      </trkpt>
      <trkpt lat="44.15276" lon="0.84241">
        <ele>72</ele>
        <time>2025-04-13T13:49:09.510Z</time>
      </trkpt>
      <trkpt lat="44.15245" lon="0.84259">
        <ele>74</ele>
        <time>2025-04-13T13:49:37.510Z</time>
      </trkpt>
      <trkpt lat="44.1524" lon="0.84261">
        <ele>74</ele>
        <time>2025-04-13T13:49:41.510Z</time>
      </trkpt>
      <trkpt lat="44.15217" lon="0.84274">
        <ele>75</ele>
        <time>2025-04-13T13:50:01.510Z</time>
      </trkpt>
      <trkpt lat="44.15208" lon="0.84277">
        <ele>74</ele>
        <time>2025-04-13T13:50:09.510Z</time>
      </trkpt>
      <trkpt lat="44.15184" lon="0.84291">
        <ele>73</ele>
        <time>2025-04-13T13:50:29.510Z</time>
      </trkpt>
      <trkpt lat="44.15176" lon="0.8429">
        <ele>72</ele>
        <time>2025-04-13T13:50:37.510Z</time>
      </trkpt>
      <trkpt lat="44.15172" lon="0.84289">
        <ele>72</ele>
        <time>2025-04-13T13:50:41.510Z</time>
      </trkpt>
      <trkpt lat="44.15162" lon="0.84289">
        <ele>73</ele>
        <time>2025-04-13T13:50:49.510Z</time>
      </trkpt>
      <trkpt lat="44.15157" lon="0.84288">
        <ele>73</ele>
        <time>2025-04-13T13:50:53.510Z</time>
      </trkpt>
      <trkpt lat="44.15137" lon="0.8429">
        <ele>74</ele>
        <time>2025-04-13T13:51:09.510Z</time>
      </trkpt>
      <trkpt lat="44.15125" lon="0.8429">
        <ele>73</ele>
        <time>2025-04-13T13:51:21.510Z</time>
      </trkpt>
      <trkpt lat="44.15123" lon="0.84292">
        <ele>74</ele>
        <time>2025-04-13T13:51:23.510Z</time>
      </trkpt>
      <trkpt lat="44.1512" lon="0.84291">
        <ele>73</ele>
        <time>2025-04-13T13:51:31.510Z</time>
      </trkpt>
      <trkpt lat="44.15118" lon="0.84287">
        <ele>74</ele>
        <time>2025-04-13T13:51:35.511Z</time>
      </trkpt>
      <trkpt lat="44.15114" lon="0.84287">
        <ele>74</ele>
        <time>2025-04-13T13:51:39.511Z</time>
      </trkpt>
      <trkpt lat="44.15112" lon="0.84287">
        <ele>75</ele>
        <time>2025-04-13T13:51:41.510Z</time>
      </trkpt>
      <trkpt lat="44.15109" lon="0.84284">
        <ele>76</ele>
        <time>2025-04-13T13:51:49.510Z</time>
      </trkpt>
      <trkpt lat="44.15107" lon="0.84286">
        <ele>78</ele>
        <time>2025-04-13T13:52:13.510Z</time>
      </trkpt>
      <trkpt lat="44.15107" lon="0.84285">
        <ele>76</ele>
        <time>2025-04-13T13:52:21.510Z</time>
      </trkpt>
      <trkpt lat="44.15103" lon="0.84282">
        <ele>75</ele>
        <time>2025-04-13T13:52:29.510Z</time>
      </trkpt>
      <trkpt lat="44.15097" lon="0.84282">
        <ele>76</ele>
        <time>2025-04-13T13:52:37.510Z</time>
      </trkpt>
      <trkpt lat="44.15093" lon="0.84285">
        <ele>76</ele>
        <time>2025-04-13T13:52:41.510Z</time>
      </trkpt>
      <trkpt lat="44.15092" lon="0.84286">
        <ele>76</ele>
        <time>2025-04-13T13:52:42.510Z</time>
      </trkpt>
      <trkpt lat="44.1509" lon="0.84287">
        <ele>76</ele>
        <time>2025-04-13T13:52:44.510Z</time>
      </trkpt>
      <trkpt lat="44.15087" lon="0.84284">
        <ele>77</ele>
        <time>2025-04-13T13:52:48.510Z</time>
      </trkpt>
      <trkpt lat="44.15073" lon="0.84283">
        <ele>83</ele>
        <time>2025-04-13T13:53:06.510Z</time>
      </trkpt>
      <trkpt lat="44.15072" lon="0.8428">
        <ele>85</ele>
        <time>2025-04-13T13:53:14.510Z</time>
      </trkpt>
      <trkpt lat="44.15068" lon="0.84281">
        <ele>88</ele>
        <time>2025-04-13T13:53:24.510Z</time>
      </trkpt>
      <trkpt lat="44.15068" lon="0.84279">
        <ele>89</ele>
        <time>2025-04-13T13:53:28.510Z</time>
      </trkpt>
      <trkpt lat="44.15061" lon="0.8428">
        <ele>91</ele>
        <time>2025-04-13T13:53:36.510Z</time>
      </trkpt>
      <trkpt lat="44.15061" lon="0.84278">
        <ele>93</ele>
        <time>2025-04-13T13:53:40.510Z</time>
      </trkpt>
      <trkpt lat="44.15056" lon="0.84278">
        <ele>93</ele>
        <time>2025-04-13T13:53:48.510Z</time>
      </trkpt>
      <trkpt lat="44.15055" lon="0.84276">
        <ele>94</ele>
        <time>2025-04-13T13:53:52.511Z</time>
      </trkpt>
      <trkpt lat="44.15055" lon="0.84275">
        <ele>94</ele>
        <time>2025-04-13T13:53:56.510Z</time>
      </trkpt>
      <trkpt lat="44.15052" lon="0.84274">
        <ele>93</ele>
        <time>2025-04-13T13:54:00.510Z</time>
      </trkpt>
      <trkpt lat="44.15051" lon="0.84275">
        <ele>92</ele>
        <time>2025-04-13T13:54:04.510Z</time>
      </trkpt>
      <trkpt lat="44.15046" lon="0.84271">
        <ele>92</ele>
        <time>2025-04-13T13:54:12.510Z</time>
      </trkpt>
      <trkpt lat="44.15041" lon="0.84272">
        <ele>92</ele>
        <time>2025-04-13T13:54:18.510Z</time>
      </trkpt>
      <trkpt lat="44.15039" lon="0.84266">
        <ele>91</ele>
        <time>2025-04-13T13:54:26.510Z</time>
      </trkpt>
      <trkpt lat="44.15035" lon="0.84266">
        <ele>90</ele>
        <time>2025-04-13T13:54:30.510Z</time>
      </trkpt>
      <trkpt lat="44.15034" lon="0.84267">
        <ele>90</ele>
        <time>2025-04-13T13:54:32.510Z</time>
      </trkpt>
      <trkpt lat="44.15033" lon="0.84265">
        <ele>90</ele>
        <time>2025-04-13T13:54:36.510Z</time>
      </trkpt>
      <trkpt lat="44.15027" lon="0.84265">
        <ele>95</ele>
        <time>2025-04-13T13:54:52.510Z</time>
      </trkpt>
      <trkpt lat="44.15024" lon="0.84264">
        <ele>98</ele>
        <time>2025-04-13T13:55:00.510Z</time>
      </trkpt>
      <trkpt lat="44.15022" lon="0.84262">
        <ele>99</ele>
        <time>2025-04-13T13:55:04.510Z</time>
      </trkpt>
      <trkpt lat="44.1502" lon="0.84261">
        <ele>99</ele>
        <time>2025-04-13T13:55:06.510Z</time>
      </trkpt>
      <trkpt lat="44.15018" lon="0.84261">
        <ele>101</ele>
        <time>2025-04-13T13:55:10.510Z</time>
      </trkpt>
      <trkpt lat="44.15016" lon="0.8426">
        <ele>101</ele>
        <time>2025-04-13T13:55:18.510Z</time>
      </trkpt>
      <trkpt lat="44.15012" lon="0.8426">
        <ele>101</ele>
        <time>2025-04-13T13:55:26.510Z</time>
      </trkpt>
      <trkpt lat="44.15004" lon="0.84256">
        <ele>100</ele>
        <time>2025-04-13T13:55:42.510Z</time>
      </trkpt>
      <trkpt lat="44.15001" lon="0.84256">
        <ele>100</ele>
        <time>2025-04-13T13:55:44.510Z</time>
      </trkpt>
      <trkpt lat="44.15001" lon="0.84255">
        <ele>100</ele>
        <time>2025-04-13T13:55:46.510Z</time>
      </trkpt>
      <trkpt lat="44.14996" lon="0.84255">
        <ele>103</ele>
        <time>2025-04-13T13:55:54.510Z</time>
      </trkpt>
      <trkpt lat="44.14993" lon="0.84254">
        <ele>104</ele>
        <time>2025-04-13T13:56:00.510Z</time>
      </trkpt>
      <trkpt lat="44.14993" lon="0.84252">
        <ele>106</ele>
        <time>2025-04-13T13:56:04.510Z</time>
      </trkpt>
      <trkpt lat="44.14989" lon="0.84252">
        <ele>110</ele>
        <time>2025-04-13T13:56:12.510Z</time>
      </trkpt>
      <trkpt lat="44.14987" lon="0.84251">
        <ele>108</ele>
        <time>2025-04-13T13:56:44.510Z</time>
      </trkpt>
      <trkpt lat="44.14985" lon="0.84253">
        <ele>110</ele>
        <time>2025-04-13T13:56:52.510Z</time>
      </trkpt>
      <trkpt lat="44.14982" lon="0.84254">
        <ele>110</ele>
        <time>2025-04-13T13:56:56.510Z</time>
      </trkpt>
      <trkpt lat="44.14975" lon="0.84252">
        <ele>110</ele>
        <time>2025-04-13T13:57:12.510Z</time>
      </trkpt>
      <trkpt lat="44.14976" lon="0.84252">
        <ele>111</ele>
        <time>2025-04-13T13:57:20.510Z</time>
      </trkpt>
      <trkpt lat="44.14974" lon="0.84248">
        <ele>108</ele>
        <time>2025-04-13T13:58:00.510Z</time>
      </trkpt>
      <trkpt lat="44.14975" lon="0.84248">
        <ele>112</ele>
        <time>2025-04-13T13:58:08.510Z</time>
      </trkpt>
      <trkpt lat="44.14975" lon="0.84245">
        <ele>111</ele>
        <time>2025-04-13T13:58:24.510Z</time>
      </trkpt>
      <trkpt lat="44.14974" lon="0.84245">
        <ele>113</ele>
        <time>2025-04-13T13:58:56.510Z</time>
      </trkpt>
      <trkpt lat="44.14973" lon="0.84247">
        <ele>116</ele>
        <time>2025-04-13T13:59:28.510Z</time>
      </trkpt>
      <trkpt lat="44.14973" lon="0.84249">
        <ele>119</ele>
        <time>2025-04-13T14:00:00.511Z</time>
      </trkpt>
      <trkpt lat="44.14968" lon="0.8425">
        <ele>113</ele>
        <time>2025-04-13T14:00:32.510Z</time>
      </trkpt>
      <trkpt lat="44.14963" lon="0.84249">
        <ele>114</ele>
        <time>2025-04-13T14:00:40.510Z</time>
      </trkpt>
      <trkpt lat="44.1496" lon="0.84249">
        <ele>114</ele>
        <time>2025-04-13T14:00:44.510Z</time>
      </trkpt>
      <trkpt lat="44.14953" lon="0.84252">
        <ele>114</ele>
        <time>2025-04-13T14:00:52.510Z</time>
      </trkpt>
      <trkpt lat="44.14952" lon="0.84251">
        <ele>115</ele>
        <time>2025-04-13T14:00:54.510Z</time>
      </trkpt>
      <trkpt lat="44.14945" lon="0.84253">
        <ele>114</ele>
        <time>2025-04-13T14:01:02.510Z</time>
      </trkpt>
      <trkpt lat="44.14935" lon="0.84251">
        <ele>113</ele>
        <time>2025-04-13T14:01:16.510Z</time>
      </trkpt>
      <trkpt lat="44.14931" lon="0.84254">
        <ele>113</ele>
        <time>2025-04-13T14:01:19.510Z</time>
      </trkpt>
      <trkpt lat="44.14927" lon="0.84253">
        <ele>114</ele>
        <time>2025-04-13T14:01:23.510Z</time>
      </trkpt>
      <trkpt lat="44.14923" lon="0.84253">
        <ele>114</ele>
        <time>2025-04-13T14:01:27.510Z</time>
      </trkpt>
      <trkpt lat="44.14909" lon="0.84248">
        <ele>115</ele>
        <time>2025-04-13T14:01:43.510Z</time>
      </trkpt>
      <trkpt lat="44.1489" lon="0.84238">
        <ele>118</ele>
        <time>2025-04-13T14:02:07.510Z</time>
      </trkpt>
      <trkpt lat="44.14888" lon="0.84234">
        <ele>120</ele>
        <time>2025-04-13T14:02:11.510Z</time>
      </trkpt>
      <trkpt lat="44.14886" lon="0.84234">
        <ele>121</ele>
        <time>2025-04-13T14:02:15.510Z</time>
      </trkpt>
      <trkpt lat="44.14882" lon="0.84229">
        <ele>122</ele>
        <time>2025-04-13T14:02:23.510Z</time>
      </trkpt>
      <trkpt lat="44.14879" lon="0.84229">
        <ele>123</ele>
        <time>2025-04-13T14:02:27.510Z</time>
      </trkpt>
      <trkpt lat="44.14874" lon="0.84225">
        <ele>124</ele>
        <time>2025-04-13T14:02:35.510Z</time>
      </trkpt>
      <trkpt lat="44.14871" lon="0.84223">
        <ele>123</ele>
        <time>2025-04-13T14:02:39.510Z</time>
      </trkpt>
      <trkpt lat="44.14864" lon="0.84224">
        <ele>124</ele>
        <time>2025-04-13T14:02:51.510Z</time>
      </trkpt>
      <trkpt lat="44.14861" lon="0.84222">
        <ele>125</ele>
        <time>2025-04-13T14:02:55.510Z</time>
      </trkpt>
      <trkpt lat="44.14855" lon="0.84224">
        <ele>123</ele>
        <time>2025-04-13T14:03:07.510Z</time>
      </trkpt>
      <trkpt lat="44.14854" lon="0.84223">
        <ele>123</ele>
        <time>2025-04-13T14:03:11.510Z</time>
      </trkpt>
      <trkpt lat="44.14851" lon="0.84221">
        <ele>123</ele>
        <time>2025-04-13T14:03:17.510Z</time>
      </trkpt>
      <trkpt lat="44.14847" lon="0.84222">
        <ele>125</ele>
        <time>2025-04-13T14:03:25.510Z</time>
      </trkpt>
      <trkpt lat="44.14841" lon="0.84218">
        <ele>127</ele>
        <time>2025-04-13T14:03:33.510Z</time>
      </trkpt>
      <trkpt lat="44.14834" lon="0.84219">
        <ele>126</ele>
        <time>2025-04-13T14:03:41.510Z</time>
      </trkpt>
      <trkpt lat="44.14834" lon="0.84218">
        <ele>126</ele>
        <time>2025-04-13T14:03:45.510Z</time>
      </trkpt>
      <trkpt lat="44.14834" lon="0.84216">
        <ele>127</ele>
        <time>2025-04-13T14:03:53.510Z</time>
      </trkpt>
      <trkpt lat="44.14834" lon="0.84218">
        <ele>128</ele>
        <time>2025-04-13T14:03:57.510Z</time>
      </trkpt>
      <trkpt lat="44.14832" lon="0.84219">
        <ele>130</ele>
        <time>2025-04-13T14:04:25.510Z</time>
      </trkpt>
      <trkpt lat="44.14834" lon="0.84216">
        <ele>138</ele>
        <time>2025-04-13T14:04:41.510Z</time>
      </trkpt>
      <trkpt lat="44.14835" lon="0.84216">
        <ele>139</ele>
        <time>2025-04-13T14:04:45.510Z</time>
      </trkpt>
      <trkpt lat="44.14834" lon="0.84217">
        <ele>138</ele>
        <time>2025-04-13T14:04:53.510Z</time>
      </trkpt>
      <trkpt lat="44.14833" lon="0.84216">
        <ele>135</ele>
        <time>2025-04-13T14:05:25.510Z</time>
      </trkpt>
      <trkpt lat="44.14833" lon="0.84217">
        <ele>135</ele>
        <time>2025-04-13T14:05:41.510Z</time>
      </trkpt>
      <trkpt lat="44.14832" lon="0.84216">
        <ele>134</ele>
        <time>2025-04-13T14:05:45.510Z</time>
      </trkpt>
      <trkpt lat="44.14831" lon="0.84217">
        <ele>137</ele>
        <time>2025-04-13T14:05:53.510Z</time>
      </trkpt>
      <trkpt lat="44.14833" lon="0.84215">
        <ele>138</ele>
        <time>2025-04-13T14:06:03.510Z</time>
      </trkpt>
      <trkpt lat="44.14831" lon="0.84216">
        <ele>140</ele>
        <time>2025-04-13T14:06:19.510Z</time>
      </trkpt>
      <trkpt lat="44.14831" lon="0.84215">
        <ele>137</ele>
        <time>2025-04-13T14:06:35.510Z</time>
      </trkpt>
      <trkpt lat="44.14833" lon="0.84214">
        <ele>134</ele>
        <time>2025-04-13T14:06:43.510Z</time>
      </trkpt>
      <trkpt lat="44.14833" lon="0.84214">
        <ele>133</ele>
        <time>2025-04-13T14:06:51.510Z</time>
      </trkpt>
      <trkpt lat="44.14825" lon="0.84214">
        <ele>134</ele>
        <time>2025-04-13T14:07:07.510Z</time>
      </trkpt>
      <trkpt lat="44.14821" lon="0.84213">
        <ele>135</ele>
        <time>2025-04-13T14:07:11.510Z</time>
      </trkpt>
      <trkpt lat="44.14808" lon="0.84213">
        <ele>135</ele>
        <time>2025-04-13T14:07:21.510Z</time>
      </trkpt>
      <trkpt lat="44.14802" lon="0.84209">
        <ele>135</ele>
        <time>2025-04-13T14:07:27.510Z</time>
      </trkpt>
      <trkpt lat="44.14799" lon="0.84208">
        <ele>136</ele>
        <time>2025-04-13T14:07:31.510Z</time>
      </trkpt>
      <trkpt lat="44.14795" lon="0.84209">
        <ele>136</ele>
        <time>2025-04-13T14:07:35.510Z</time>
      </trkpt>
      <trkpt lat="44.14792" lon="0.84208">
        <ele>136</ele>
        <time>2025-04-13T14:07:39.510Z</time>
      </trkpt>
      <trkpt lat="44.14784" lon="0.84206">
        <ele>135</ele>
        <time>2025-04-13T14:07:47.510Z</time>
      </trkpt>
      <trkpt lat="44.14779" lon="0.84201">
        <ele>134</ele>
        <time>2025-04-13T14:07:55.510Z</time>
      </trkpt>
      <trkpt lat="44.14774" lon="0.84198">
        <ele>136</ele>
        <time>2025-04-13T14:08:03.510Z</time>
      </trkpt>
      <trkpt lat="44.14766" lon="0.84201">
        <ele>140</ele>
        <time>2025-04-13T14:08:11.510Z</time>
      </trkpt>
      <trkpt lat="44.14765" lon="0.84202">
        <ele>141</ele>
        <time>2025-04-13T14:08:19.510Z</time>
      </trkpt>
      <trkpt lat="44.14764" lon="0.84198">
        <ele>150</ele>
        <time>2025-04-13T14:08:51.510Z</time>
      </trkpt>
      <trkpt lat="44.14765" lon="0.84197">
        <ele>151</ele>
        <time>2025-04-13T14:09:09.510Z</time>
      </trkpt>
      <trkpt lat="44.14765" lon="0.84198">
        <ele>151</ele>
        <time>2025-04-13T14:09:11.510Z</time>
      </trkpt>
      <trkpt lat="44.14756" lon="0.84202">
        <ele>150</ele>
        <time>2025-04-13T14:09:21.510Z</time>
      </trkpt>
      <trkpt lat="44.14752" lon="0.84206">
        <ele>149</ele>
        <time>2025-04-13T14:09:25.510Z</time>
      </trkpt>
      <trkpt lat="44.14749" lon="0.84207">
        <ele>149</ele>
        <time>2025-04-13T14:09:29.510Z</time>
      </trkpt>
      <trkpt lat="44.14747" lon="0.84206">
        <ele>149</ele>
        <time>2025-04-13T14:09:33.510Z</time>
      </trkpt>
      <trkpt lat="44.14701" lon="0.84227">
        <ele>153</ele>
        <time>2025-04-13T14:10:17.510Z</time>
      </trkpt>
      <trkpt lat="44.14694" lon="0.84229">
        <ele>154</ele>
        <time>2025-04-13T14:10:25.510Z</time>
      </trkpt>
      <trkpt lat="44.1467" lon="0.84239">
        <ele>159</ele>
        <time>2025-04-13T14:10:57.510Z</time>
      </trkpt>
      <trkpt lat="44.14663" lon="0.8424">
        <ele>162</ele>
        <time>2025-04-13T14:11:05.510Z</time>
      </trkpt>
      <trkpt lat="44.14657" lon="0.8424">
        <ele>167</ele>
        <time>2025-04-13T14:11:13.510Z</time>
      </trkpt>
      <trkpt lat="44.14654" lon="0.84243">
        <ele>168</ele>
        <time>2025-04-13T14:11:18.510Z</time>
      </trkpt>
      <trkpt lat="44.14655" lon="0.84242">
        <ele>168</ele>
        <time>2025-04-13T14:11:19.510Z</time>
      </trkpt>
      <trkpt lat="44.14652" lon="0.84243">
        <ele>167</ele>
        <time>2025-04-13T14:11:31.510Z</time>
      </trkpt>
      <trkpt lat="44.14653" lon="0.84241">
        <ele>166</ele>
        <time>2025-04-13T14:11:35.510Z</time>
      </trkpt>
      <trkpt lat="44.14652" lon="0.84241">
        <ele>165</ele>
        <time>2025-04-13T14:11:43.510Z</time>
      </trkpt>
      <trkpt lat="44.14652" lon="0.84241">
        <ele>164</ele>
        <time>2025-04-13T14:12:15.510Z</time>
      </trkpt>
      <trkpt lat="44.14651" lon="0.84241">
        <ele>163</ele>
        <time>2025-04-13T14:12:31.510Z</time>
      </trkpt>
      <trkpt lat="44.14655" lon="0.84239">
        <ele>160</ele>
        <time>2025-04-13T14:12:59.510Z</time>
      </trkpt>
      <trkpt lat="44.14653" lon="0.84241">
        <ele>162</ele>
        <time>2025-04-13T14:13:07.510Z</time>
      </trkpt>
      <trkpt lat="44.14649" lon="0.84241">
        <ele>163</ele>
        <time>2025-04-13T14:13:39.510Z</time>
      </trkpt>
      <trkpt lat="44.14649" lon="0.8424">
        <ele>161</ele>
        <time>2025-04-13T14:13:59.510Z</time>
      </trkpt>
      <trkpt lat="44.14647" lon="0.8424">
        <ele>161</ele>
        <time>2025-04-13T14:14:31.510Z</time>
      </trkpt>
      <trkpt lat="44.14647" lon="0.8424">
        <ele>161</ele>
        <time>2025-04-13T14:14:47.510Z</time>
      </trkpt>
      <trkpt lat="44.14644" lon="0.8424">
        <ele>162</ele>
        <time>2025-04-13T14:14:55.510Z</time>
      </trkpt>
      <trkpt lat="44.14628" lon="0.84236">
        <ele>161</ele>
        <time>2025-04-13T14:15:11.510Z</time>
      </trkpt>
      <trkpt lat="44.14624" lon="0.84235">
        <ele>161</ele>
        <time>2025-04-13T14:15:15.510Z</time>
      </trkpt>
      <trkpt lat="44.14621" lon="0.84234">
        <ele>161</ele>
        <time>2025-04-13T14:15:19.510Z</time>
      </trkpt>
      <trkpt lat="44.1461" lon="0.84233">
        <ele>159</ele>
        <time>2025-04-13T14:15:31.510Z</time>
      </trkpt>
      <trkpt lat="44.14606" lon="0.84231">
        <ele>158</ele>
        <time>2025-04-13T14:15:35.511Z</time>
      </trkpt>
      <trkpt lat="44.14602" lon="0.84232">
        <ele>157</ele>
        <time>2025-04-13T14:15:39.510Z</time>
      </trkpt>
      <trkpt lat="44.14597" lon="0.84231">
        <ele>156</ele>
        <time>2025-04-13T14:15:43.510Z</time>
      </trkpt>
      <trkpt lat="44.14589" lon="0.84231">
        <ele>154</ele>
        <time>2025-04-13T14:15:51.510Z</time>
      </trkpt>
      <trkpt lat="44.14554" lon="0.84224">
        <ele>150</ele>
        <time>2025-04-13T14:16:23.510Z</time>
      </trkpt>
      <trkpt lat="44.14545" lon="0.84223">
        <ele>150</ele>
        <time>2025-04-13T14:16:31.510Z</time>
      </trkpt>
      <trkpt lat="44.14527" lon="0.84219">
        <ele>148</ele>
        <time>2025-04-13T14:16:47.510Z</time>
      </trkpt>
      <trkpt lat="44.1452" lon="0.84216">
        <ele>147</ele>
        <time>2025-04-13T14:16:55.510Z</time>
      </trkpt>
      <trkpt lat="44.14515" lon="0.84215">
        <ele>146</ele>
        <time>2025-04-13T14:16:59.510Z</time>
      </trkpt>
      <trkpt lat="44.14512" lon="0.84213">
        <ele>145</ele>
        <time>2025-04-13T14:17:03.510Z</time>
      </trkpt>
      <trkpt lat="44.14509" lon="0.8421">
        <ele>145</ele>
        <time>2025-04-13T14:17:07.510Z</time>
      </trkpt>
      <trkpt lat="44.14505" lon="0.84209">
        <ele>145</ele>
        <time>2025-04-13T14:17:11.510Z</time>
      </trkpt>
      <trkpt lat="44.14501" lon="0.84205">
        <ele>145</ele>
        <time>2025-04-13T14:17:15.510Z</time>
      </trkpt>
      <trkpt lat="44.14498" lon="0.84203">
        <ele>144</ele>
        <time>2025-04-13T14:17:19.510Z</time>
      </trkpt>
      <trkpt lat="44.14494" lon="0.84199">
        <ele>144</ele>
        <time>2025-04-13T14:17:23.510Z</time>
      </trkpt>
      <trkpt lat="44.14481" lon="0.84189">
        <ele>144</ele>
        <time>2025-04-13T14:17:35.510Z</time>
      </trkpt>
      <trkpt lat="44.14475" lon="0.84185">
        <ele>146</ele>
        <time>2025-04-13T14:17:41.510Z</time>
      </trkpt>
      <trkpt lat="44.14472" lon="0.84182">
        <ele>146</ele>
        <time>2025-04-13T14:17:45.510Z</time>
      </trkpt>
      <trkpt lat="44.1445" lon="0.84163">
        <ele>137</ele>
        <time>2025-04-13T14:18:07.510Z</time>
      </trkpt>
      <trkpt lat="44.14449" lon="0.8416">
        <ele>137</ele>
        <time>2025-04-13T14:18:10.510Z</time>
      </trkpt>
      <trkpt lat="44.14446" lon="0.8416">
        <ele>136</ele>
        <time>2025-04-13T14:18:12.510Z</time>
      </trkpt>
      <trkpt lat="44.14443" lon="0.84154">
        <ele>136</ele>
        <time>2025-04-13T14:18:16.510Z</time>
      </trkpt>
      <trkpt lat="44.14433" lon="0.84146">
        <ele>135</ele>
        <time>2025-04-13T14:18:24.510Z</time>
      </trkpt>
      <trkpt lat="44.14428" lon="0.84138">
        <ele>131</ele>
        <time>2025-04-13T14:18:36.510Z</time>
      </trkpt>
      <trkpt lat="44.14425" lon="0.84127">
        <ele>125</ele>
        <time>2025-04-13T14:18:52.510Z</time>
      </trkpt>
      <trkpt lat="44.1442" lon="0.84113">
        <ele>124</ele>
        <time>2025-04-13T14:19:00.510Z</time>
      </trkpt>
      <trkpt lat="44.14397" lon="0.84069">
        <ele>116</ele>
        <time>2025-04-13T14:19:32.510Z</time>
      </trkpt>
      <trkpt lat="44.1439" lon="0.84059">
        <ele>116</ele>
        <time>2025-04-13T14:19:40.510Z</time>
      </trkpt>
      <trkpt lat="44.14325" lon="0.83995">
        <ele>102</ele>
        <time>2025-04-13T14:20:48.510Z</time>
      </trkpt>
      <trkpt lat="44.14307" lon="0.83981">
        <ele>100</ele>
        <time>2025-04-13T14:21:04.510Z</time>
      </trkpt>
      <trkpt lat="44.14303" lon="0.83977">
        <ele>99</ele>
        <time>2025-04-13T14:21:08.510Z</time>
      </trkpt>
      <trkpt lat="44.14291" lon="0.83969">
        <ele>99</ele>
        <time>2025-04-13T14:21:20.510Z</time>
      </trkpt>
      <trkpt lat="44.1427" lon="0.8396">
        <ele>97</ele>
        <time>2025-04-13T14:21:40.510Z</time>
      </trkpt>
      <trkpt lat="44.14252" lon="0.83947">
        <ele>95</ele>
        <time>2025-04-13T14:22:00.510Z</time>
      </trkpt>
      <trkpt lat="44.14247" lon="0.83945">
        <ele>95</ele>
        <time>2025-04-13T14:22:04.510Z</time>
      </trkpt>
      <trkpt lat="44.1423" lon="0.83937">
        <ele>95</ele>
        <time>2025-04-13T14:22:20.510Z</time>
      </trkpt>
      <trkpt lat="44.14222" lon="0.83931">
        <ele>94</ele>
        <time>2025-04-13T14:22:28.510Z</time>
      </trkpt>
      <trkpt lat="44.14209" lon="0.83928">
        <ele>96</ele>
        <time>2025-04-13T14:22:44.510Z</time>
      </trkpt>
      <trkpt lat="44.1421" lon="0.83926">
        <ele>98</ele>
        <time>2025-04-13T14:23:16.510Z</time>
      </trkpt>
      <trkpt lat="44.14205" lon="0.83928">
        <ele>97</ele>
        <time>2025-04-13T14:24:04.510Z</time>
      </trkpt>
      <trkpt lat="44.14204" lon="0.8393">
        <ele>99</ele>
        <time>2025-04-13T14:24:20.510Z</time>
      </trkpt>
      <trkpt lat="44.14205" lon="0.83927">
        <ele>101</ele>
        <time>2025-04-13T14:24:30.510Z</time>
      </trkpt>
      <trkpt lat="44.14204" lon="0.83928">
        <ele>100</ele>
        <time>2025-04-13T14:24:34.510Z</time>
      </trkpt>
      <trkpt lat="44.14203" lon="0.83928">
        <ele>99</ele>
        <time>2025-04-13T14:24:36.511Z</time>
      </trkpt>
      <trkpt lat="44.14202" lon="0.83931">
        <ele>98</ele>
        <time>2025-04-13T14:24:40.510Z</time>
      </trkpt>
      <trkpt lat="44.142" lon="0.83942">
        <ele>96</ele>
        <time>2025-04-13T14:24:48.510Z</time>
      </trkpt>
      <trkpt lat="44.14192" lon="0.8398">
        <ele>93</ele>
        <time>2025-04-13T14:25:12.510Z</time>
      </trkpt>
      <trkpt lat="44.14189" lon="0.83995">
        <ele>94</ele>
        <time>2025-04-13T14:25:20.511Z</time>
      </trkpt>
      <trkpt lat="44.14178" lon="0.84039">
        <ele>93</ele>
        <time>2025-04-13T14:25:48.510Z</time>
      </trkpt>
      <trkpt lat="44.14161" lon="0.84109">
        <ele>96</ele>
        <time>2025-04-13T14:26:28.510Z</time>
      </trkpt>
      <trkpt lat="44.14159" lon="0.84115">
        <ele>98</ele>
        <time>2025-04-13T14:26:32.510Z</time>
      </trkpt>
      <trkpt lat="44.14154" lon="0.84143">
        <ele>97</ele>
        <time>2025-04-13T14:26:48.510Z</time>
      </trkpt>
      <trkpt lat="44.14155" lon="0.84148">
        <ele>93</ele>
        <time>2025-04-13T14:27:04.510Z</time>
      </trkpt>
      <trkpt lat="44.14147" lon="0.84206">
        <ele>93</ele>
        <time>2025-04-13T14:27:44.510Z</time>
      </trkpt>
      <trkpt lat="44.14141" lon="0.84236">
        <ele>91</ele>
        <time>2025-04-13T14:28:00.510Z</time>
      </trkpt>
      <trkpt lat="44.1414" lon="0.84243">
        <ele>90</ele>
        <time>2025-04-13T14:28:04.510Z</time>
      </trkpt>
      <trkpt lat="44.14137" lon="0.84257">
        <ele>88</ele>
        <time>2025-04-13T14:28:12.510Z</time>
      </trkpt>
      <trkpt lat="44.14135" lon="0.84271">
        <ele>89</ele>
        <time>2025-04-13T14:28:20.510Z</time>
      </trkpt>
      <trkpt lat="44.14133" lon="0.8428">
        <ele>88</ele>
        <time>2025-04-13T14:28:36.510Z</time>
      </trkpt>
      <trkpt lat="44.14127" lon="0.84283">
        <ele>88</ele>
        <time>2025-04-13T14:28:44.510Z</time>
      </trkpt>
      <trkpt lat="44.14119" lon="0.84285">
        <ele>90</ele>
        <time>2025-04-13T14:28:52.510Z</time>
      </trkpt>
      <trkpt lat="44.14112" lon="0.84282">
        <ele>88</ele>
        <time>2025-04-13T14:29:00.510Z</time>
      </trkpt>
      <trkpt lat="44.14104" lon="0.84283">
        <ele>87</ele>
        <time>2025-04-13T14:29:12.510Z</time>
      </trkpt>
      <trkpt lat="44.14099" lon="0.84285">
        <ele>86</ele>
        <time>2025-04-13T14:29:20.511Z</time>
      </trkpt>
      <trkpt lat="44.14077" lon="0.84289">
        <ele>84</ele>
        <time>2025-04-13T14:29:44.510Z</time>
      </trkpt>
      <trkpt lat="44.1407" lon="0.84289">
        <ele>84</ele>
        <time>2025-04-13T14:29:52.510Z</time>
      </trkpt>
      <trkpt lat="44.14063" lon="0.84291">
        <ele>83</ele>
        <time>2025-04-13T14:30:00.511Z</time>
      </trkpt>
      <trkpt lat="44.14061" lon="0.8429">
        <ele>82</ele>
        <time>2025-04-13T14:30:04.510Z</time>
      </trkpt>
      <trkpt lat="44.14032" lon="0.84297">
        <ele>79</ele>
        <time>2025-04-13T14:30:36.510Z</time>
      </trkpt>
      <trkpt lat="44.13999" lon="0.84304">
        <ele>75</ele>
        <time>2025-04-13T14:31:08.510Z</time>
      </trkpt>
      <trkpt lat="44.13976" lon="0.8431">
        <ele>73</ele>
        <time>2025-04-13T14:31:28.511Z</time>
      </trkpt>
      <trkpt lat="44.13938" lon="0.84313">
        <ele>71</ele>
        <time>2025-04-13T14:32:00.511Z</time>
      </trkpt>
      <trkpt lat="44.13918" lon="0.84313">
        <ele>69</ele>
        <time>2025-04-13T14:32:16.510Z</time>
      </trkpt>
      <trkpt lat="44.13868" lon="0.84318">
        <ele>68</ele>
        <time>2025-04-13T14:32:56.510Z</time>
      </trkpt>
      <trkpt lat="44.13847" lon="0.84316">
        <ele>67</ele>
        <time>2025-04-13T14:33:12.510Z</time>
      </trkpt>
      <trkpt lat="44.13839" lon="0.84312">
        <ele>67</ele>
        <time>2025-04-13T14:33:20.510Z</time>
      </trkpt>
      <trkpt lat="44.13833" lon="0.84308">
        <ele>66</ele>
        <time>2025-04-13T14:33:36.510Z</time>
      </trkpt>
      <trkpt lat="44.13832" lon="0.84302">
        <ele>67</ele>
        <time>2025-04-13T14:33:48.510Z</time>
      </trkpt>
      <trkpt lat="44.1383" lon="0.84289">
        <ele>67</ele>
        <time>2025-04-13T14:33:56.510Z</time>
      </trkpt>
      <trkpt lat="44.13831" lon="0.84261">
        <ele>66</ele>
        <time>2025-04-13T14:34:12.510Z</time>
      </trkpt>
      <trkpt lat="44.1383" lon="0.84248">
        <ele>67</ele>
        <time>2025-04-13T14:34:20.510Z</time>
      </trkpt>
      <trkpt lat="44.13825" lon="0.84229">
        <ele>68</ele>
        <time>2025-04-13T14:34:32.510Z</time>
      </trkpt>
      <trkpt lat="44.1382" lon="0.84218">
        <ele>67</ele>
        <time>2025-04-13T14:34:40.510Z</time>
      </trkpt>
      <trkpt lat="44.13807" lon="0.84199">
        <ele>68</ele>
        <time>2025-04-13T14:34:56.510Z</time>
      </trkpt>
      <trkpt lat="44.13795" lon="0.84179">
        <ele>70</ele>
        <time>2025-04-13T14:35:12.510Z</time>
      </trkpt>
      <trkpt lat="44.13791" lon="0.84175">
        <ele>70</ele>
        <time>2025-04-13T14:35:16.510Z</time>
      </trkpt>
      <trkpt lat="44.13785" lon="0.84164">
        <ele>70</ele>
        <time>2025-04-13T14:35:24.510Z</time>
      </trkpt>
      <trkpt lat="44.13766" lon="0.84136">
        <ele>70</ele>
        <time>2025-04-13T14:35:52.510Z</time>
      </trkpt>
      <trkpt lat="44.13762" lon="0.84127">
        <ele>70</ele>
        <time>2025-04-13T14:36:00.510Z</time>
      </trkpt>
      <trkpt lat="44.13759" lon="0.84115">
        <ele>70</ele>
        <time>2025-04-13T14:36:08.510Z</time>
      </trkpt>
      <trkpt lat="44.13745" lon="0.84081">
        <ele>72</ele>
        <time>2025-04-13T14:36:36.510Z</time>
      </trkpt>
      <trkpt lat="44.13737" lon="0.8407">
        <ele>74</ele>
        <time>2025-04-13T14:36:48.510Z</time>
      </trkpt>
      <trkpt lat="44.13737" lon="0.84064">
        <ele>73</ele>
        <time>2025-04-13T14:36:52.511Z</time>
      </trkpt>
      <trkpt lat="44.13722" lon="0.84038">
        <ele>76</ele>
        <time>2025-04-13T14:37:16.510Z</time>
      </trkpt>
      <trkpt lat="44.13721" lon="0.84027">
        <ele>76</ele>
        <time>2025-04-13T14:37:24.510Z</time>
      </trkpt>
      <trkpt lat="44.13718" lon="0.84011">
        <ele>76</ele>
        <time>2025-04-13T14:37:36.510Z</time>
      </trkpt>
      <trkpt lat="44.13718" lon="0.84001">
        <ele>75</ele>
        <time>2025-04-13T14:37:44.510Z</time>
      </trkpt>
      <trkpt lat="44.13717" lon="0.83996">
        <ele>76</ele>
        <time>2025-04-13T14:37:48.511Z</time>
      </trkpt>
      <trkpt lat="44.13718" lon="0.83983">
        <ele>76</ele>
        <time>2025-04-13T14:37:56.510Z</time>
      </trkpt>
      <trkpt lat="44.13718" lon="0.83978">
        <ele>76</ele>
        <time>2025-04-13T14:38:00.510Z</time>
      </trkpt>
      <trkpt lat="44.13721" lon="0.83967">
        <ele>78</ele>
        <time>2025-04-13T14:38:08.510Z</time>
      </trkpt>
      <trkpt lat="44.1372" lon="0.83937">
        <ele>79</ele>
        <time>2025-04-13T14:38:28.510Z</time>
      </trkpt>
      <trkpt lat="44.13724" lon="0.83923">
        <ele>79</ele>
        <time>2025-04-13T14:38:40.510Z</time>
      </trkpt>
      <trkpt lat="44.13727" lon="0.83916">
        <ele>80</ele>
        <time>2025-04-13T14:38:56.510Z</time>
      </trkpt>
      <trkpt lat="44.13728" lon="0.83908">
        <ele>82</ele>
        <time>2025-04-13T14:39:04.510Z</time>
      </trkpt>
      <trkpt lat="44.13728" lon="0.83899">
        <ele>84</ele>
        <time>2025-04-13T14:39:12.510Z</time>
      </trkpt>
      <trkpt lat="44.13729" lon="0.83873">
        <ele>81</ele>
        <time>2025-04-13T14:39:28.510Z</time>
      </trkpt>
      <trkpt lat="44.13731" lon="0.83858">
        <ele>81</ele>
        <time>2025-04-13T14:39:40.510Z</time>
      </trkpt>
      <trkpt lat="44.13731" lon="0.83847">
        <ele>83</ele>
        <time>2025-04-13T14:39:48.510Z</time>
      </trkpt>
      <trkpt lat="44.13727" lon="0.83833">
        <ele>84</ele>
        <time>2025-04-13T14:39:56.510Z</time>
      </trkpt>
      <trkpt lat="44.13729" lon="0.83826">
        <ele>82</ele>
        <time>2025-04-13T14:40:00.510Z</time>
      </trkpt>
      <trkpt lat="44.13732" lon="0.83822">
        <ele>81</ele>
        <time>2025-04-13T14:40:04.510Z</time>
      </trkpt>
      <trkpt lat="44.13733" lon="0.83808">
        <ele>80</ele>
        <time>2025-04-13T14:40:12.510Z</time>
      </trkpt>
      <trkpt lat="44.13738" lon="0.83782">
        <ele>76</ele>
        <time>2025-04-13T14:40:28.510Z</time>
      </trkpt>
      <trkpt lat="44.13739" lon="0.83762">
        <ele>78</ele>
        <time>2025-04-13T14:40:40.510Z</time>
      </trkpt>
      <trkpt lat="44.13738" lon="0.83756">
        <ele>79</ele>
        <time>2025-04-13T14:40:44.510Z</time>
      </trkpt>
      <trkpt lat="44.13739" lon="0.8375">
        <ele>78</ele>
        <time>2025-04-13T14:40:48.510Z</time>
      </trkpt>
      <trkpt lat="44.13739" lon="0.83737">
        <ele>78</ele>
        <time>2025-04-13T14:40:56.510Z</time>
      </trkpt>
      <trkpt lat="44.13742" lon="0.83719">
        <ele>80</ele>
        <time>2025-04-13T14:41:08.510Z</time>
      </trkpt>
      <trkpt lat="44.13742" lon="0.83693">
        <ele>77</ele>
        <time>2025-04-13T14:41:24.510Z</time>
      </trkpt>
      <trkpt lat="44.13738" lon="0.83681">
        <ele>77</ele>
        <time>2025-04-13T14:41:32.510Z</time>
      </trkpt>
      <trkpt lat="44.13738" lon="0.83674">
        <ele>78</ele>
        <time>2025-04-13T14:41:36.510Z</time>
      </trkpt>
      <trkpt lat="44.13736" lon="0.83665">
        <ele>79</ele>
        <time>2025-04-13T14:41:42.510Z</time>
      </trkpt>
      <trkpt lat="44.13737" lon="0.83663">
        <ele>79</ele>
        <time>2025-04-13T14:41:44.510Z</time>
      </trkpt>
      <trkpt lat="44.13737" lon="0.83659">
        <ele>78</ele>
        <time>2025-04-13T14:41:46.510Z</time>
      </trkpt>
      <trkpt lat="44.13736" lon="0.83654">
        <ele>78</ele>
        <time>2025-04-13T14:41:48.510Z</time>
      </trkpt>
      <trkpt lat="44.13735" lon="0.83651">
        <ele>78</ele>
        <time>2025-04-13T14:41:50.510Z</time>
      </trkpt>
      <trkpt lat="44.13734" lon="0.83645">
        <ele>77</ele>
        <time>2025-04-13T14:41:54.510Z</time>
      </trkpt>
      <trkpt lat="44.13732" lon="0.83637">
        <ele>75</ele>
        <time>2025-04-13T14:41:58.510Z</time>
      </trkpt>
      <trkpt lat="44.13731" lon="0.83625">
        <ele>74</ele>
        <time>2025-04-13T14:42:06.511Z</time>
      </trkpt>
      <trkpt lat="44.13728" lon="0.83613">
        <ele>75</ele>
        <time>2025-04-13T14:42:14.510Z</time>
      </trkpt>
      <trkpt lat="44.13729" lon="0.83608">
        <ele>75</ele>
        <time>2025-04-13T14:42:18.510Z</time>
      </trkpt>
      <trkpt lat="44.13728" lon="0.83598">
        <ele>76</ele>
        <time>2025-04-13T14:42:24.510Z</time>
      </trkpt>
      <trkpt lat="44.13727" lon="0.83597">
        <ele>77</ele>
        <time>2025-04-13T14:42:26.510Z</time>
      </trkpt>
      <trkpt lat="44.13728" lon="0.83588">
        <ele>78</ele>
        <time>2025-04-13T14:42:34.510Z</time>
      </trkpt>
      <trkpt lat="44.13728" lon="0.83582">
        <ele>78</ele>
        <time>2025-04-13T14:42:38.510Z</time>
      </trkpt>
      <trkpt lat="44.13729" lon="0.83571">
        <ele>77</ele>
        <time>2025-04-13T14:42:44.510Z</time>
      </trkpt>
      <trkpt lat="44.13733" lon="0.83563">
        <ele>75</ele>
        <time>2025-04-13T14:42:50.510Z</time>
      </trkpt>
      <trkpt lat="44.13732" lon="0.83556">
        <ele>74</ele>
        <time>2025-04-13T14:42:54.510Z</time>
      </trkpt>
      <trkpt lat="44.13735" lon="0.83545">
        <ele>72</ele>
        <time>2025-04-13T14:43:02.510Z</time>
      </trkpt>
      <trkpt lat="44.13736" lon="0.83539">
        <ele>72</ele>
        <time>2025-04-13T14:43:06.510Z</time>
      </trkpt>
      <trkpt lat="44.13742" lon="0.8353">
        <ele>69</ele>
        <time>2025-04-13T14:43:14.510Z</time>
      </trkpt>
      <trkpt lat="44.13743" lon="0.83522">
        <ele>69</ele>
        <time>2025-04-13T14:43:20.510Z</time>
      </trkpt>
      <trkpt lat="44.13749" lon="0.83508">
        <ele>69</ele>
        <time>2025-04-13T14:43:32.510Z</time>
      </trkpt>
      <trkpt lat="44.1375" lon="0.83503">
        <ele>71</ele>
        <time>2025-04-13T14:43:36.510Z</time>
      </trkpt>
      <trkpt lat="44.13754" lon="0.83496">
        <ele>74</ele>
        <time>2025-04-13T14:43:44.510Z</time>
      </trkpt>
      <trkpt lat="44.13756" lon="0.83487">
        <ele>75</ele>
        <time>2025-04-13T14:43:52.510Z</time>
      </trkpt>
      <trkpt lat="44.13756" lon="0.8348">
        <ele>78</ele>
        <time>2025-04-13T14:44:00.510Z</time>
      </trkpt>
      <trkpt lat="44.13761" lon="0.83472">
        <ele>80</ele>
        <time>2025-04-13T14:44:08.510Z</time>
      </trkpt>
      <trkpt lat="44.13764" lon="0.83461">
        <ele>83</ele>
        <time>2025-04-13T14:44:20.510Z</time>
      </trkpt>
      <trkpt lat="44.13766" lon="0.83458">
        <ele>83</ele>
        <time>2025-04-13T14:44:24.510Z</time>
      </trkpt>
      <trkpt lat="44.13769" lon="0.83444">
        <ele>85</ele>
        <time>2025-04-13T14:44:40.510Z</time>
      </trkpt>
      <trkpt lat="44.13776" lon="0.83433">
        <ele>93</ele>
        <time>2025-04-13T14:44:56.511Z</time>
      </trkpt>
      <trkpt lat="44.13778" lon="0.83428">
        <ele>97</ele>
        <time>2025-04-13T14:45:04.510Z</time>
      </trkpt>
      <trkpt lat="44.13787" lon="0.83423">
        <ele>96</ele>
        <time>2025-04-13T14:45:19.511Z</time>
      </trkpt>
      <trkpt lat="44.13788" lon="0.83423">
        <ele>96</ele>
        <time>2025-04-13T14:45:20.510Z</time>
      </trkpt>
      <trkpt lat="44.13791" lon="0.83423">
        <ele>96</ele>
        <time>2025-04-13T14:45:22.510Z</time>
      </trkpt>
      <trkpt lat="44.13792" lon="0.8342">
        <ele>96</ele>
        <time>2025-04-13T14:45:26.510Z</time>
      </trkpt>
      <trkpt lat="44.13792" lon="0.83418">
        <ele>97</ele>
        <time>2025-04-13T14:45:27.510Z</time>
      </trkpt>
      <trkpt lat="44.13796" lon="0.83416">
        <ele>95</ele>
        <time>2025-04-13T14:45:31.510Z</time>
      </trkpt>
      <trkpt lat="44.138" lon="0.83411">
        <ele>95</ele>
        <time>2025-04-13T14:45:39.510Z</time>
      </trkpt>
      <trkpt lat="44.13805" lon="0.83406">
        <ele>94</ele>
        <time>2025-04-13T14:45:47.510Z</time>
      </trkpt>
      <trkpt lat="44.13806" lon="0.83402">
        <ele>95</ele>
        <time>2025-04-13T14:45:51.510Z</time>
      </trkpt>
      <trkpt lat="44.13811" lon="0.83396">
        <ele>95</ele>
        <time>2025-04-13T14:45:59.510Z</time>
      </trkpt>
      <trkpt lat="44.13812" lon="0.83391">
        <ele>95</ele>
        <time>2025-04-13T14:46:03.510Z</time>
      </trkpt>
      <trkpt lat="44.13815" lon="0.83387">
        <ele>97</ele>
        <time>2025-04-13T14:46:09.510Z</time>
      </trkpt>
      <trkpt lat="44.13815" lon="0.83384">
        <ele>98</ele>
        <time>2025-04-13T14:46:11.510Z</time>
      </trkpt>
      <trkpt lat="44.13815" lon="0.83381">
        <ele>99</ele>
        <time>2025-04-13T14:46:13.510Z</time>
      </trkpt>
      <trkpt lat="44.13817" lon="0.83379">
        <ele>100</ele>
        <time>2025-04-13T14:46:15.510Z</time>
      </trkpt>
      <trkpt lat="44.13827" lon="0.83377">
        <ele>100</ele>
        <time>2025-04-13T14:46:23.510Z</time>
      </trkpt>
      <trkpt lat="44.13832" lon="0.83375">
        <ele>98</ele>
        <time>2025-04-13T14:46:31.510Z</time>
      </trkpt>
      <trkpt lat="44.13839" lon="0.83366">
        <ele>99</ele>
        <time>2025-04-13T14:46:43.510Z</time>
      </trkpt>
      <trkpt lat="44.1384" lon="0.83363">
        <ele>100</ele>
        <time>2025-04-13T14:46:47.510Z</time>
      </trkpt>
      <trkpt lat="44.13842" lon="0.8336">
        <ele>102</ele>
        <time>2025-04-13T14:46:51.510Z</time>
      </trkpt>
      <trkpt lat="44.13844" lon="0.8336">
        <ele>102</ele>
        <time>2025-04-13T14:46:53.510Z</time>
      </trkpt>
      <trkpt lat="44.13849" lon="0.83352">
        <ele>101</ele>
        <time>2025-04-13T14:47:01.510Z</time>
      </trkpt>
      <trkpt lat="44.13851" lon="0.83343">
        <ele>101</ele>
        <time>2025-04-13T14:47:09.510Z</time>
      </trkpt>
      <trkpt lat="44.13849" lon="0.83335">
        <ele>102</ele>
        <time>2025-04-13T14:47:15.510Z</time>
      </trkpt>
      <trkpt lat="44.13853" lon="0.83331">
        <ele>101</ele>
        <time>2025-04-13T14:47:19.510Z</time>
      </trkpt>
      <trkpt lat="44.13856" lon="0.83324">
        <ele>101</ele>
        <time>2025-04-13T14:47:25.510Z</time>
      </trkpt>
      <trkpt lat="44.13858" lon="0.83324">
        <ele>102</ele>
        <time>2025-04-13T14:47:27.510Z</time>
      </trkpt>
      <trkpt lat="44.13862" lon="0.83317">
        <ele>102</ele>
        <time>2025-04-13T14:47:35.510Z</time>
      </trkpt>
      <trkpt lat="44.13863" lon="0.83313">
        <ele>102</ele>
        <time>2025-04-13T14:47:39.510Z</time>
      </trkpt>
      <trkpt lat="44.13864" lon="0.83308">
        <ele>102</ele>
        <time>2025-04-13T14:47:43.510Z</time>
      </trkpt>
      <trkpt lat="44.13865" lon="0.83307">
        <ele>102</ele>
        <time>2025-04-13T14:47:47.510Z</time>
      </trkpt>
      <trkpt lat="44.13862" lon="0.83307">
        <ele>99</ele>
        <time>2025-04-13T14:48:03.510Z</time>
      </trkpt>
      <trkpt lat="44.13868" lon="0.83302">
        <ele>103</ele>
        <time>2025-04-13T14:48:27.510Z</time>
      </trkpt>
      <trkpt lat="44.13874" lon="0.83292">
        <ele>105</ele>
        <time>2025-04-13T14:48:39.510Z</time>
      </trkpt>
      <trkpt lat="44.13875" lon="0.83287">
        <ele>107</ele>
        <time>2025-04-13T14:48:43.510Z</time>
      </trkpt>
      <trkpt lat="44.1388" lon="0.83279">
        <ele>109</ele>
        <time>2025-04-13T14:48:49.510Z</time>
      </trkpt>
      <trkpt lat="44.1388" lon="0.83274">
        <ele>109</ele>
        <time>2025-04-13T14:48:53.511Z</time>
      </trkpt>
      <trkpt lat="44.13882" lon="0.83271">
        <ele>109</ele>
        <time>2025-04-13T14:48:55.510Z</time>
      </trkpt>
      <trkpt lat="44.13881" lon="0.83266">
        <ele>110</ele>
        <time>2025-04-13T14:48:59.510Z</time>
      </trkpt>
      <trkpt lat="44.13886" lon="0.83259">
        <ele>108</ele>
        <time>2025-04-13T14:49:07.510Z</time>
      </trkpt>
      <trkpt lat="44.13887" lon="0.83252">
        <ele>106</ele>
        <time>2025-04-13T14:49:15.510Z</time>
      </trkpt>
      <trkpt lat="44.1389" lon="0.83247">
        <ele>112</ele>
        <time>2025-04-13T14:49:31.510Z</time>
      </trkpt>
      <trkpt lat="44.1389" lon="0.83245">
        <ele>114</ele>
        <time>2025-04-13T14:49:39.510Z</time>
      </trkpt>
      <trkpt lat="44.13896" lon="0.8324">
        <ele>114</ele>
        <time>2025-04-13T14:49:55.510Z</time>
      </trkpt>
      <trkpt lat="44.13897" lon="0.83242">
        <ele>113</ele>
        <time>2025-04-13T14:50:03.510Z</time>
      </trkpt>
      <trkpt lat="44.13901" lon="0.83231">
        <ele>115</ele>
        <time>2025-04-13T14:50:19.511Z</time>
      </trkpt>
      <trkpt lat="44.13903" lon="0.8323">
        <ele>116</ele>
        <time>2025-04-13T14:50:23.510Z</time>
      </trkpt>
      <trkpt lat="44.13906" lon="0.83226">
        <ele>117</ele>
        <time>2025-04-13T14:50:29.510Z</time>
      </trkpt>
      <trkpt lat="44.13909" lon="0.83226">
        <ele>118</ele>
        <time>2025-04-13T14:50:33.511Z</time>
      </trkpt>
      <trkpt lat="44.1391" lon="0.83224">
        <ele>118</ele>
        <time>2025-04-13T14:50:35.510Z</time>
      </trkpt>
      <trkpt lat="44.13911" lon="0.83225">
        <ele>118</ele>
        <time>2025-04-13T14:50:39.510Z</time>
      </trkpt>
      <trkpt lat="44.13913" lon="0.83221">
        <ele>119</ele>
        <time>2025-04-13T14:50:43.510Z</time>
      </trkpt>
      <trkpt lat="44.13913" lon="0.83214">
        <ele>120</ele>
        <time>2025-04-13T14:50:47.510Z</time>
      </trkpt>
      <trkpt lat="44.13925" lon="0.83207">
        <ele>122</ele>
        <time>2025-04-13T14:51:03.510Z</time>
      </trkpt>
      <trkpt lat="44.13928" lon="0.83202">
        <ele>124</ele>
        <time>2025-04-13T14:51:11.510Z</time>
      </trkpt>
      <trkpt lat="44.13936" lon="0.832">
        <ele>126</ele>
        <time>2025-04-13T14:51:19.510Z</time>
      </trkpt>
      <trkpt lat="44.13943" lon="0.83199">
        <ele>127</ele>
        <time>2025-04-13T14:51:26.510Z</time>
      </trkpt>
      <trkpt lat="44.13943" lon="0.83198">
        <ele>127</ele>
        <time>2025-04-13T14:51:28.510Z</time>
      </trkpt>
      <trkpt lat="44.13945" lon="0.83198">
        <ele>127</ele>
        <time>2025-04-13T14:51:30.510Z</time>
      </trkpt>
      <trkpt lat="44.13946" lon="0.83194">
        <ele>126</ele>
        <time>2025-04-13T14:51:34.510Z</time>
      </trkpt>
      <trkpt lat="44.13949" lon="0.83194">
        <ele>126</ele>
        <time>2025-04-13T14:51:36.511Z</time>
      </trkpt>
      <trkpt lat="44.13951" lon="0.8319">
        <ele>125</ele>
        <time>2025-04-13T14:51:44.510Z</time>
      </trkpt>
      <trkpt lat="44.13954" lon="0.83187">
        <ele>127</ele>
        <time>2025-04-13T14:51:52.510Z</time>
      </trkpt>
      <trkpt lat="44.13957" lon="0.83186">
        <ele>128</ele>
        <time>2025-04-13T14:51:56.510Z</time>
      </trkpt>
      <trkpt lat="44.13962" lon="0.83181">
        <ele>130</ele>
        <time>2025-04-13T14:52:00.510Z</time>
      </trkpt>
      <trkpt lat="44.13969" lon="0.83179">
        <ele>132</ele>
        <time>2025-04-13T14:52:08.510Z</time>
      </trkpt>
      <trkpt lat="44.1397" lon="0.83179">
        <ele>133</ele>
        <time>2025-04-13T14:52:10.510Z</time>
      </trkpt>
      <trkpt lat="44.13971" lon="0.83183">
        <ele>134</ele>
        <time>2025-04-13T14:52:26.511Z</time>
      </trkpt>
      <trkpt lat="44.13969" lon="0.83182">
        <ele>133</ele>
        <time>2025-04-13T14:52:58.510Z</time>
      </trkpt>
      <trkpt lat="44.13972" lon="0.83177">
        <ele>135</ele>
        <time>2025-04-13T14:53:14.510Z</time>
      </trkpt>
      <trkpt lat="44.13978" lon="0.83172">
        <ele>137</ele>
        <time>2025-04-13T14:53:22.510Z</time>
      </trkpt>
      <trkpt lat="44.13981" lon="0.83171">
        <ele>138</ele>
        <time>2025-04-13T14:53:26.511Z</time>
      </trkpt>
      <trkpt lat="44.13986" lon="0.83162">
        <ele>135</ele>
        <time>2025-04-13T14:53:35.510Z</time>
      </trkpt>
      <trkpt lat="44.13988" lon="0.83163">
        <ele>135</ele>
        <time>2025-04-13T14:53:43.510Z</time>
      </trkpt>
      <trkpt lat="44.13989" lon="0.83161">
        <ele>135</ele>
        <time>2025-04-13T14:53:51.510Z</time>
      </trkpt>
      <trkpt lat="44.13991" lon="0.83161">
        <ele>135</ele>
        <time>2025-04-13T14:53:57.510Z</time>
      </trkpt>
      <trkpt lat="44.13997" lon="0.83156">
        <ele>137</ele>
        <time>2025-04-13T14:54:05.510Z</time>
      </trkpt>
      <trkpt lat="44.13999" lon="0.83155">
        <ele>139</ele>
        <time>2025-04-13T14:54:13.510Z</time>
      </trkpt>
      <trkpt lat="44.14021" lon="0.83138">
        <ele>137</ele>
        <time>2025-04-13T14:54:37.510Z</time>
      </trkpt>
      <trkpt lat="44.14022" lon="0.83136">
        <ele>136</ele>
        <time>2025-04-13T14:54:39.510Z</time>
      </trkpt>
      <trkpt lat="44.14029" lon="0.83129">
        <ele>132</ele>
        <time>2025-04-13T14:54:47.510Z</time>
      </trkpt>
      <trkpt lat="44.14033" lon="0.83127">
        <ele>130</ele>
        <time>2025-04-13T14:54:51.510Z</time>
      </trkpt>
      <trkpt lat="44.14038" lon="0.83126">
        <ele>129</ele>
        <time>2025-04-13T14:54:55.510Z</time>
      </trkpt>
      <trkpt lat="44.1405" lon="0.83132">
        <ele>126</ele>
        <time>2025-04-13T14:55:04.510Z</time>
      </trkpt>
      <trkpt lat="44.14053" lon="0.83138">
        <ele>126</ele>
        <time>2025-04-13T14:55:08.510Z</time>
      </trkpt>
      <trkpt lat="44.14056" lon="0.83151">
        <ele>125</ele>
        <time>2025-04-13T14:55:16.510Z</time>
      </trkpt>
      <trkpt lat="44.14055" lon="0.83157">
        <ele>124</ele>
        <time>2025-04-13T14:55:20.510Z</time>
      </trkpt>
      <trkpt lat="44.14052" lon="0.83167">
        <ele>125</ele>
        <time>2025-04-13T14:55:32.510Z</time>
      </trkpt>
      <trkpt lat="44.14054" lon="0.83178">
        <ele>123</ele>
        <time>2025-04-13T14:55:40.510Z</time>
      </trkpt>
      <trkpt lat="44.14064" lon="0.83197">
        <ele>122</ele>
        <time>2025-04-13T14:56:20.510Z</time>
      </trkpt>
      <trkpt lat="44.14066" lon="0.83209">
        <ele>121</ele>
        <time>2025-04-13T14:56:36.510Z</time>
      </trkpt>
      <trkpt lat="44.14068" lon="0.83213">
        <ele>119</ele>
        <time>2025-04-13T14:56:44.510Z</time>
      </trkpt>
      <trkpt lat="44.14067" lon="0.83214">
        <ele>123</ele>
        <time>2025-04-13T14:57:00.510Z</time>
      </trkpt>
      <trkpt lat="44.14066" lon="0.83213">
        <ele>122</ele>
        <time>2025-04-13T14:57:08.510Z</time>
      </trkpt>
      <trkpt lat="44.14065" lon="0.83217">
        <ele>124</ele>
        <time>2025-04-13T14:57:20.510Z</time>
      </trkpt>
      <trkpt lat="44.14065" lon="0.83215">
        <ele>125</ele>
        <time>2025-04-13T14:57:36.510Z</time>
      </trkpt>
      <trkpt lat="44.14062" lon="0.83216">
        <ele>125</ele>
        <time>2025-04-13T14:57:46.510Z</time>
      </trkpt>
    </trkseg>
  </trk>
</gpx>